Time,TemperatureF,DewpointF,PressureIn,WindDirection,WindDirectionDegrees,WindSpeedMPH,WindSpeedGustMPH,Humidity,HourlyPrecipIn,Conditions,Clouds,dailyrainin,SoftwareType,DateUTC
2013-05-01 00:01:00,55.7,47.2,29.99,East,86,0.0,0.0,73,0.00,RA,SCT,0.00,WeatherDisplay:10.37,2013-05-01 04:01:00,
2013-05-01 00:02:00,55.7,47.2,29.99,East,86,0.0,0.0,73,0.00,RA,SCT,0.00,WeatherDisplay:10.37,2013-05-01 04:02:00,
2013-05-01 00:05:00,55.6,47.1,29.99,East,86,0.0,0.0,73,0.00,RA,SCT,0.00,WeatherDisplay:10.37,2013-05-01 04:05:00,
2013-05-01 00:07:00,55.4,47.2,29.99,East,86,0.0,0.0,74,0.00,RA,SCT,0.00,WeatherDisplay:10.37,2013-05-01 04:07:00,
2013-05-01 00:08:00,55.4,47.2,29.99,East,86,0.0,0.0,74,0.00,RA,SCT,0.00,WeatherDisplay:10.37,2013-05-01 04:08:00,
2013-05-01 00:09:00,55.4,47.2,29.99,East,86,0.0,0.0,74,0.00,RA,SCT,0.00,WeatherDisplay:10.37,2013-05-01 04:09:00,
2013-05-01 00:12:00,55.1,47.0,29.99,East,86,0.0,0.0,74,0.00,,SCT,0.00,WeatherDisplay:10.37,2013-05-01 04:12:00,
2013-05-01 00:13:00,55.0,46.9,29.99,East,86,0.0,0.0,74,0.00,,SCT,0.00,WeatherDisplay:10.37,2013-05-01 04:13:00,
2013-05-01 00:14:00,54.8,46.7,30.00,East,85,0.0,0.0,74,0.00,,SCT,0.00,WeatherDisplay:10.37,2013-05-01 04:14:00,
2013-05-01 00:15:00,54.8,46.7,30.00,East,86,0.0,0.0,74,0.00,,SCT,0.00,WeatherDisplay:10.37,2013-05-01 04:15:00,
2013-05-01 00:17:00,54.7,46.6,30.00,East,86,0.0,0.0,74,0.00,,SCT,0.00,WeatherDisplay:10.37,2013-05-01 04:17:00,
2013-05-01 00:20:00,54.5,46.4,30.00,East,86,0.0,0.0,74,0.00,,SCT,0.00,WeatherDisplay:10.37,2013-05-01 04:20:00,
2013-05-01 00:21:00,54.5,46.4,30.00,East,86,0.0,0.0,74,0.00,,SCT,0.00,WeatherDisplay:10.37,2013-05-01 04:21:00,
2013-05-01 00:24:00,54.4,46.3,30.00,East,86,0.0,0.0,74,0.00,,SCT,0.00,WeatherDisplay:10.37,2013-05-01 04:24:00,
2013-05-01 00:26:00,54.4,46.3,30.00,East,86,0.0,0.0,74,0.00,,SCT,0.00,WeatherDisplay:10.37,2013-05-01 04:26:00,
2013-05-01 00:27:00,54.4,46.3,30.00,East,86,0.0,0.0,74,0.00,,SCT,0.00,WeatherDisplay:10.37,2013-05-01 04:27:00,
2013-05-01 00:30:00,54.2,46.1,30.00,East,86,0.0,0.0,74,0.00,,SCT,0.00,WeatherDisplay:10.37,2013-05-01 04:30:00,
2013-05-01 00:31:00,54.2,46.1,30.00,East,86,0.0,0.0,74,0.00,,SCT,0.00,WeatherDisplay:10.37,2013-05-01 04:31:00,
2013-05-01 00:34:00,54.1,46.0,30.01,East,86,0.0,0.0,74,0.00,,SCT,0.00,WeatherDisplay:10.37,2013-05-01 04:34:00,
2013-05-01 00:35:00,54.1,46.0,30.01,East,86,0.0,0.0,74,0.00,,SCT,0.00,WeatherDisplay:10.37,2013-05-01 04:35:00,
2013-05-01 00:36:00,54.1,46.0,30.01,East,86,0.0,0.0,74,0.00,,SCT,0.00,WeatherDisplay:10.37,2013-05-01 04:36:00,
2013-05-01 00:38:00,53.9,45.8,30.01,East,86,0.0,0.0,74,0.00,,SCT,0.00,WeatherDisplay:10.37,2013-05-01 04:38:00,
2013-05-01 00:39:00,53.9,45.8,30.01,East,86,0.0,0.0,74,0.00,,SCT,0.00,WeatherDisplay:10.37,2013-05-01 04:39:00,
2013-05-01 00:40:00,53.9,45.8,30.01,East,86,0.0,0.0,74,0.00,,SCT,0.00,WeatherDisplay:10.37,2013-05-01 04:40:00,
2013-05-01 00:43:00,53.9,45.8,30.01,East,86,0.0,0.0,74,0.00,,SCT,0.00,WeatherDisplay:10.37,2013-05-01 04:43:00,
2013-05-01 00:44:00,53.9,45.8,30.01,East,86,0.0,0.0,74,0.00,,SCT,0.00,WeatherDisplay:10.37,2013-05-01 04:44:00,
2013-05-01 00:46:00,53.9,46.2,30.01,East,86,0.0,0.0,75,0.00,,SCT,0.00,WeatherDisplay:10.37,2013-05-01 04:46:00,
2013-05-01 00:47:00,53.9,46.2,30.01,East,86,0.0,0.0,75,0.00,,SCT,0.00,WeatherDisplay:10.37,2013-05-01 04:47:00,
2013-05-01 00:49:00,53.9,46.2,30.01,East,86,0.0,0.0,75,0.00,,SCT,0.00,WeatherDisplay:10.37,2013-05-01 04:49:00,
2013-05-01 00:52:00,53.9,46.2,30.01,East,86,0.0,0.0,75,0.00,,SCT,0.00,WeatherDisplay:10.37,2013-05-01 04:52:00,
2013-05-01 00:53:00,53.9,46.2,30.01,East,86,0.0,0.0,75,0.00,,SCT,0.00,WeatherDisplay:10.37,2013-05-01 04:53:00,
2013-05-01 00:54:00,53.9,46.2,30.01,East,86,0.0,0.0,75,0.00,,SCT,0.00,WeatherDisplay:10.37,2013-05-01 04:54:00,
2013-05-01 00:55:00,53.9,46.2,30.01,East,86,0.0,0.0,75,0.00,,SCT,0.00,WeatherDisplay:10.37,2013-05-01 04:55:00,
2013-05-01 00:58:00,53.8,46.1,30.01,East,86,0.0,0.0,75,0.00,,SCT,0.00,WeatherDisplay:10.37,2013-05-01 04:58:00,
2013-05-01 00:59:00,53.8,46.1,30.01,East,86,0.0,0.0,75,0.00,,SCT,0.00,WeatherDisplay:10.37,2013-05-01 04:59:00,
2013-05-01 01:01:00,53.8,46.1,30.01,East,86,0.0,0.0,75,0.00,,SCT,0.00,WeatherDisplay:10.37,2013-05-01 05:01:00,
2013-05-01 01:02:00,53.8,46.1,30.01,East,86,0.0,0.0,75,0.00,,SCT,0.00,WeatherDisplay:10.37,2013-05-01 05:02:00,
2013-05-01 01:04:00,53.8,46.4,30.01,East,86,0.0,0.0,76,0.00,,SCT,0.00,WeatherDisplay:10.37,2013-05-01 05:04:00,
2013-05-01 01:05:00,53.6,46.2,30.01,East,86,0.0,0.0,76,0.00,,SCT,0.00,WeatherDisplay:10.37,2013-05-01 05:05:00,
2013-05-01 01:08:00,53.6,46.2,30.01,East,86,0.0,0.0,76,0.00,,SCT,0.00,WeatherDisplay:10.37,2013-05-01 05:08:00,
2013-05-01 01:09:00,53.6,46.2,30.01,East,86,0.0,0.0,76,0.00,,SCT,0.00,WeatherDisplay:10.37,2013-05-01 05:09:00,
2013-05-01 01:10:00,53.6,46.2,30.01,East,86,0.0,0.0,76,0.00,,SCT,0.00,WeatherDisplay:10.37,2013-05-01 05:10:00,
2013-05-01 01:11:00,53.6,46.2,30.01,East,86,0.0,0.0,76,0.00,,SCT,0.00,WeatherDisplay:10.37,2013-05-01 05:11:00,
2013-05-01 01:13:00,53.6,46.2,30.01,East,86,0.0,0.0,76,0.00,,SCT,0.00,WeatherDisplay:10.37,2013-05-01 05:13:00,
2013-05-01 01:16:00,53.5,46.1,30.01,East,86,0.0,0.0,76,0.00,,SCT,0.00,WeatherDisplay:10.37,2013-05-01 05:16:00,
2013-05-01 01:17:00,53.5,46.1,30.01,East,86,0.0,0.0,76,0.00,,SCT,0.00,WeatherDisplay:10.37,2013-05-01 05:17:00,
2013-05-01 01:18:00,53.5,46.1,30.01,East,86,0.0,0.0,76,0.00,,SCT,0.00,WeatherDisplay:10.37,2013-05-01 05:18:00,
2013-05-01 01:20:00,53.5,46.5,30.01,East,86,0.0,0.0,77,0.00,,SCT,0.00,WeatherDisplay:10.37,2013-05-01 05:20:00,
2013-05-01 01:22:00,53.5,46.5,30.01,East,85,0.0,0.0,77,0.00,,SCT,0.00,WeatherDisplay:10.37,2013-05-01 05:22:00,
2013-05-01 01:23:00,53.5,46.5,30.01,East,86,0.0,0.0,77,0.00,,SCT,0.00,WeatherDisplay:10.37,2013-05-01 05:23:00,
2013-05-01 01:27:00,53.3,46.3,30.01,East,86,0.0,0.0,77,0.00,,SCT,0.00,WeatherDisplay:10.37,2013-05-01 05:27:00,
2013-05-01 01:29:00,53.3,46.3,30.01,East,86,0.0,0.0,77,0.00,,SCT,0.00,WeatherDisplay:10.37,2013-05-01 05:29:00,
2013-05-01 01:31:00,53.2,46.2,30.01,East,86,0.0,0.0,77,0.00,,SCT,0.00,WeatherDisplay:10.37,2013-05-01 05:31:00,
2013-05-01 01:32:00,53.1,46.1,30.01,East,86,0.0,0.0,77,0.00,,SCT,0.00,WeatherDisplay:10.37,2013-05-01 05:32:00,
2013-05-01 01:34:00,53.1,46.1,30.01,East,86,0.0,0.0,77,0.00,,SCT,0.00,WeatherDisplay:10.37,2013-05-01 05:34:00,
2013-05-01 01:36:00,53.1,46.1,30.01,East,86,0.0,0.0,77,0.00,,SCT,0.00,WeatherDisplay:10.37,2013-05-01 05:36:00,
2013-05-01 01:38:00,52.9,45.9,30.01,East,86,0.0,0.0,77,0.00,,SCT,0.00,WeatherDisplay:10.37,2013-05-01 05:38:00,
2013-05-01 01:40:00,52.9,45.9,30.01,East,86,0.0,0.0,77,0.00,,SCT,0.00,WeatherDisplay:10.37,2013-05-01 05:40:00,
2013-05-01 01:41:00,52.9,45.9,30.01,East,86,0.0,0.0,77,0.00,,SCT,0.00,WeatherDisplay:10.37,2013-05-01 05:41:00,
2013-05-01 01:46:00,52.8,45.8,30.01,East,86,0.0,0.0,77,0.00,,SCT,0.00,WeatherDisplay:10.37,2013-05-01 05:46:00,
2013-05-01 01:47:00,52.6,45.9,30.01,East,86,0.0,0.0,78,0.00,,SCT,0.00,WeatherDisplay:10.37,2013-05-01 05:47:00,
2013-05-01 01:48:00,52.6,45.9,30.01,East,86,0.0,0.0,78,0.00,,SCT,0.00,WeatherDisplay:10.37,2013-05-01 05:48:00,
2013-05-01 01:49:00,52.6,45.9,30.01,East,86,0.0,0.0,78,0.00,,SCT,0.00,WeatherDisplay:10.37,2013-05-01 05:49:00,
2013-05-01 01:52:00,52.6,45.9,30.01,East,86,0.0,0.0,78,0.00,,SCT,0.00,WeatherDisplay:10.37,2013-05-01 05:52:00,
2013-05-01 01:54:00,52.6,45.9,30.00,East,86,0.0,0.0,78,0.00,,SCT,0.00,WeatherDisplay:10.37,2013-05-01 05:54:00,
2013-05-01 01:55:00,52.6,45.9,30.01,East,86,0.0,0.0,78,0.00,,SCT,0.00,WeatherDisplay:10.37,2013-05-01 05:55:00,
2013-05-01 01:57:00,52.5,45.8,30.01,East,86,0.0,0.0,78,0.00,,SCT,0.00,WeatherDisplay:10.37,2013-05-01 05:57:00,
2013-05-01 02:00:00,52.5,45.8,30.01,East,86,0.0,0.0,78,0.00,,SCT,0.00,WeatherDisplay:10.37,2013-05-01 06:00:00,
2013-05-01 02:01:00,52.5,45.8,30.01,East,86,0.0,0.0,78,0.00,,SCT,0.00,WeatherDisplay:10.37,2013-05-01 06:01:00,
2013-05-01 02:04:00,52.3,45.6,30.01,East,86,0.0,0.0,78,0.00,,SCT,0.00,WeatherDisplay:10.37,2013-05-01 06:04:00,
2013-05-01 02:05:00,52.5,45.8,30.01,East,86,0.0,0.0,78,0.00,,SCT,0.00,WeatherDisplay:10.37,2013-05-01 06:05:00,
2013-05-01 02:07:00,52.3,45.6,30.00,East,86,0.0,0.0,78,0.00,,SCT,0.00,WeatherDisplay:10.37,2013-05-01 06:07:00,
2013-05-01 02:09:00,52.3,45.6,30.01,East,86,0.0,0.0,78,0.00,,SCT,0.00,WeatherDisplay:10.37,2013-05-01 06:09:00,
2013-05-01 02:11:00,52.3,45.6,30.00,East,86,0.0,0.0,78,0.00,,SCT,0.00,WeatherDisplay:10.37,2013-05-01 06:11:00,
2013-05-01 02:13:00,52.3,45.6,30.00,East,86,0.0,0.0,78,0.00,,SCT,0.00,WeatherDisplay:10.37,2013-05-01 06:13:00,
2013-05-01 02:15:00,52.3,45.6,30.01,East,86,0.0,0.0,78,0.00,,SCT,0.00,WeatherDisplay:10.37,2013-05-01 06:15:00,
2013-05-01 02:16:00,52.3,45.6,30.00,East,86,0.0,0.0,78,0.00,,SCT,0.00,WeatherDisplay:10.37,2013-05-01 06:16:00,
2013-05-01 02:17:00,52.3,45.6,30.01,East,86,0.0,0.0,78,0.00,,SCT,0.00,WeatherDisplay:10.37,2013-05-01 06:17:00,
2013-05-01 02:20:00,52.2,45.5,30.00,East,86,0.0,0.0,78,0.00,,SCT,0.00,WeatherDisplay:10.37,2013-05-01 06:20:00,
2013-05-01 02:21:00,52.2,45.5,30.00,East,86,0.0,0.0,78,0.00,,SCT,0.00,WeatherDisplay:10.37,2013-05-01 06:21:00,
2013-05-01 02:22:00,52.2,45.5,30.00,East,86,0.0,0.0,78,0.00,,SCT,0.00,WeatherDisplay:10.37,2013-05-01 06:22:00,
2013-05-01 02:23:00,52.2,45.5,30.00,East,86,0.0,0.0,78,0.00,,SCT,0.00,WeatherDisplay:10.37,2013-05-01 06:23:00,
2013-05-01 02:25:00,52.2,45.9,30.00,East,86,0.0,0.0,79,0.00,,SCT,0.00,WeatherDisplay:10.37,2013-05-01 06:25:00,
2013-05-01 02:26:00,52.2,45.9,30.01,East,86,0.0,0.0,79,0.00,,SCT,0.00,WeatherDisplay:10.37,2013-05-01 06:26:00,
2013-05-01 02:27:00,52.0,45.7,30.01,East,86,0.0,0.0,79,0.00,,SCT,0.00,WeatherDisplay:10.37,2013-05-01 06:27:00,
2013-05-01 02:30:00,52.0,45.7,30.01,East,86,0.0,0.0,79,0.00,,SCT,0.00,WeatherDisplay:10.37,2013-05-01 06:30:00,
2013-05-01 02:31:00,51.9,45.6,30.01,East,86,0.0,0.0,79,0.00,,SCT,0.00,WeatherDisplay:10.37,2013-05-01 06:31:00,
2013-05-01 02:32:00,51.9,45.6,30.01,East,86,0.0,0.0,79,0.00,,SCT,0.00,WeatherDisplay:10.37,2013-05-01 06:32:00,
2013-05-01 02:36:00,51.6,45.6,30.01,East,86,0.0,0.0,80,0.00,,SCT,0.00,WeatherDisplay:10.37,2013-05-01 06:36:00,
2013-05-01 02:37:00,51.6,45.3,30.01,East,86,0.0,0.0,79,0.00,,SCT,0.00,WeatherDisplay:10.37,2013-05-01 06:37:00,
2013-05-01 02:38:00,51.6,45.3,30.01,East,86,0.0,0.0,79,0.00,,SCT,0.00,WeatherDisplay:10.37,2013-05-01 06:38:00,
2013-05-01 02:39:00,51.6,45.3,30.01,East,86,0.0,0.0,79,0.00,,SCT,0.00,WeatherDisplay:10.37,2013-05-01 06:39:00,
2013-05-01 02:40:00,51.4,45.1,30.01,East,86,0.0,0.0,79,0.00,,SCT,0.00,WeatherDisplay:10.37,2013-05-01 06:40:00,
2013-05-01 02:42:00,51.4,45.1,30.02,East,86,0.0,0.0,79,0.00,,SCT,0.00,WeatherDisplay:10.37,2013-05-01 06:42:00,
2013-05-01 02:44:00,51.3,45.0,30.02,East,86,0.0,0.0,79,0.00,,SCT,0.00,WeatherDisplay:10.37,2013-05-01 06:44:00,
2013-05-01 02:45:00,51.3,45.0,30.02,East,86,0.0,0.0,79,0.00,,SCT,0.00,WeatherDisplay:10.37,2013-05-01 06:45:00,
2013-05-01 02:46:00,51.3,45.0,30.02,East,86,0.0,0.0,79,0.00,,SCT,0.00,WeatherDisplay:10.37,2013-05-01 06:46:00,
2013-05-01 02:49:00,51.1,44.8,30.02,East,86,0.0,0.0,79,0.00,,SCT,0.00,WeatherDisplay:10.37,2013-05-01 06:49:00,
2013-05-01 02:51:00,51.0,44.7,30.02,East,86,0.0,0.0,79,0.00,,SCT,0.00,WeatherDisplay:10.37,2013-05-01 06:51:00,
2013-05-01 02:53:00,51.0,44.7,30.02,East,86,0.0,0.0,79,0.00,,SCT,0.00,WeatherDisplay:10.37,2013-05-01 06:53:00,
2013-05-01 02:54:00,50.8,44.5,30.02,East,86,0.0,0.0,79,0.00,,SCT,0.00,WeatherDisplay:10.37,2013-05-01 06:54:00,
2013-05-01 02:55:00,50.8,44.5,30.02,East,86,0.0,0.0,79,0.00,,SCT,0.00,WeatherDisplay:10.37,2013-05-01 06:55:00,
2013-05-01 02:57:00,50.8,44.5,30.02,East,86,0.0,0.0,79,0.00,,SCT,0.00,WeatherDisplay:10.37,2013-05-01 06:57:00,
2013-05-01 02:59:00,50.7,44.4,30.02,East,86,0.0,0.0,79,0.00,,SCT,0.00,WeatherDisplay:10.37,2013-05-01 06:59:00,
2013-05-01 03:01:00,50.7,44.4,30.02,East,86,0.0,0.0,79,0.00,,SCT,0.00,WeatherDisplay:10.37,2013-05-01 07:01:00,
2013-05-01 03:02:00,50.7,44.4,30.02,East,86,0.0,0.0,79,0.00,,SCT,0.00,WeatherDisplay:10.37,2013-05-01 07:02:00,
2013-05-01 03:04:00,50.5,44.2,30.02,East,86,0.0,0.0,79,0.00,,SCT,0.00,WeatherDisplay:10.37,2013-05-01 07:04:00,
2013-05-01 03:06:00,50.5,44.2,30.02,East,86,0.0,0.0,79,0.00,,SCT,0.00,WeatherDisplay:10.37,2013-05-01 07:06:00,
2013-05-01 03:07:00,50.5,44.2,30.02,East,85,0.0,0.0,79,0.00,,SCT,0.00,WeatherDisplay:10.37,2013-05-01 07:07:00,
2013-05-01 03:08:00,50.5,44.2,30.02,East,86,0.0,0.0,79,0.00,,SCT,0.00,WeatherDisplay:10.37,2013-05-01 07:08:00,
2013-05-01 03:10:00,50.4,44.1,30.02,East,86,0.0,0.0,79,0.00,,SCT,0.00,WeatherDisplay:10.37,2013-05-01 07:10:00,
2013-05-01 03:12:00,50.4,44.1,30.02,East,86,0.0,0.0,79,0.00,,SCT,0.00,WeatherDisplay:10.37,2013-05-01 07:12:00,
2013-05-01 03:15:00,50.4,44.1,30.02,East,86,0.0,0.0,79,0.00,,SCT,0.00,WeatherDisplay:10.37,2013-05-01 07:15:00,
2013-05-01 03:16:00,50.2,43.9,30.02,East,86,0.0,0.0,79,0.00,,SCT,0.00,WeatherDisplay:10.37,2013-05-01 07:16:00,
2013-05-01 03:17:00,50.2,43.9,30.02,East,86,0.0,0.0,79,0.00,,SCT,0.00,WeatherDisplay:10.37,2013-05-01 07:17:00,
2013-05-01 03:18:00,50.2,43.9,30.02,East,86,0.0,0.0,79,0.00,,SCT,0.00,WeatherDisplay:10.37,2013-05-01 07:18:00,
2013-05-01 03:21:00,50.2,44.3,30.02,East,86,0.0,0.0,80,0.00,,SCT,0.00,WeatherDisplay:10.37,2013-05-01 07:21:00,
2013-05-01 03:22:00,50.4,44.5,30.02,East,86,0.0,0.0,80,0.00,,SCT,0.00,WeatherDisplay:10.37,2013-05-01 07:22:00,
2013-05-01 03:25:00,50.4,44.5,30.02,East,86,0.0,0.0,80,0.00,,SCT,0.00,WeatherDisplay:10.37,2013-05-01 07:25:00,
2013-05-01 03:27:00,50.4,44.5,30.02,East,86,0.0,0.0,80,0.00,,SCT,0.00,WeatherDisplay:10.37,2013-05-01 07:27:00,
2013-05-01 03:28:00,50.4,44.5,30.02,East,86,0.0,0.0,80,0.00,,SCT,0.00,WeatherDisplay:10.37,2013-05-01 07:28:00,
2013-05-01 03:30:00,50.4,44.5,30.02,East,86,0.0,0.0,80,0.00,,SCT,0.00,WeatherDisplay:10.37,2013-05-01 07:30:00,
2013-05-01 03:32:00,50.5,44.6,30.02,East,86,0.0,0.0,80,0.00,,SCT,0.00,WeatherDisplay:10.37,2013-05-01 07:32:00,
2013-05-01 03:33:00,50.5,44.6,30.02,East,86,0.0,0.0,80,0.00,,SCT,0.00,WeatherDisplay:10.37,2013-05-01 07:33:00,
2013-05-01 03:37:00,50.7,44.8,30.02,East,86,0.0,0.0,80,0.00,,SCT,0.00,WeatherDisplay:10.37,2013-05-01 07:37:00,
2013-05-01 03:38:00,50.7,44.8,30.02,East,86,0.0,0.0,80,0.00,,SCT,0.00,WeatherDisplay:10.37,2013-05-01 07:38:00,
2013-05-01 03:39:00,50.7,44.8,30.02,East,86,0.0,0.0,80,0.00,,SCT,0.00,WeatherDisplay:10.37,2013-05-01 07:39:00,
2013-05-01 03:43:00,50.5,44.9,30.01,East,86,0.0,0.0,81,0.00,,SCT,0.00,WeatherDisplay:10.37,2013-05-01 07:43:00,
2013-05-01 03:45:00,50.5,44.9,30.01,East,86,0.0,0.0,81,0.00,,SCT,0.00,WeatherDisplay:10.37,2013-05-01 07:45:00,
2013-05-01 03:48:00,50.5,44.9,30.01,East,86,0.0,0.0,81,0.00,,SCT,0.00,WeatherDisplay:10.37,2013-05-01 07:48:00,
2013-05-01 03:49:00,50.4,44.8,30.01,East,86,0.0,0.0,81,0.00,,SCT,0.00,WeatherDisplay:10.37,2013-05-01 07:49:00,
2013-05-01 03:51:00,50.4,44.8,30.01,East,86,0.0,0.0,81,0.00,,SCT,0.00,WeatherDisplay:10.37,2013-05-01 07:51:00,
2013-05-01 03:52:00,50.4,44.8,30.01,East,86,0.0,0.0,81,0.00,,SCT,0.00,WeatherDisplay:10.37,2013-05-01 07:52:00,
2013-05-01 03:53:00,50.4,44.8,30.01,East,86,0.0,0.0,81,0.00,,SCT,0.00,WeatherDisplay:10.37,2013-05-01 07:53:00,
2013-05-01 03:56:00,50.4,44.8,30.01,East,86,0.0,0.0,81,0.00,,SCT,0.00,WeatherDisplay:10.37,2013-05-01 07:56:00,
2013-05-01 03:57:00,50.4,44.8,30.01,East,86,0.0,0.0,81,0.00,,SCT,0.00,WeatherDisplay:10.37,2013-05-01 07:57:00,
2013-05-01 03:58:00,50.4,44.8,30.02,East,86,0.0,0.0,81,0.00,,SCT,0.00,WeatherDisplay:10.37,2013-05-01 07:58:00,
2013-05-01 04:00:00,50.4,44.8,30.02,East,86,0.0,0.0,81,0.00,,SCT,0.00,WeatherDisplay:10.37,2013-05-01 08:00:00,
2013-05-01 04:01:00,50.2,44.6,30.02,East,86,0.0,0.0,81,0.00,,SCT,0.00,WeatherDisplay:10.37,2013-05-01 08:01:00,
2013-05-01 04:03:00,50.2,44.6,30.02,East,86,0.0,0.0,81,0.00,,SCT,0.00,WeatherDisplay:10.37,2013-05-01 08:03:00,
2013-05-01 04:08:00,50.2,44.6,30.02,East,86,0.0,0.0,81,0.00,,SCT,0.00,WeatherDisplay:10.37,2013-05-01 08:08:00,
2013-05-01 04:10:00,50.2,44.6,30.02,East,86,0.0,0.0,81,0.00,,SCT,0.00,WeatherDisplay:10.37,2013-05-01 08:10:00,
2013-05-01 04:11:00,50.2,44.6,30.02,East,86,0.0,0.0,81,0.00,,SCT,0.00,WeatherDisplay:10.37,2013-05-01 08:11:00,
2013-05-01 04:12:00,50.2,44.6,30.02,East,86,0.0,0.0,81,0.00,,SCT,0.00,WeatherDisplay:10.37,2013-05-01 08:12:00,
2013-05-01 04:13:00,50.2,44.6,30.02,East,86,0.0,0.0,81,0.00,,SCT,0.00,WeatherDisplay:10.37,2013-05-01 08:13:00,
2013-05-01 04:16:00,50.1,44.5,30.02,East,86,0.0,0.0,81,0.00,,SCT,0.00,WeatherDisplay:10.37,2013-05-01 08:16:00,
2013-05-01 04:18:00,50.1,44.5,30.02,East,86,0.0,0.0,81,0.00,,SCT,0.00,WeatherDisplay:10.37,2013-05-01 08:18:00,
2013-05-01 04:21:00,50.1,44.5,30.02,East,86,0.0,0.0,81,0.00,,SCT,0.00,WeatherDisplay:10.37,2013-05-01 08:21:00,
2013-05-01 04:22:00,50.1,44.5,30.02,East,86,0.0,0.0,81,0.00,,SCT,0.00,WeatherDisplay:10.37,2013-05-01 08:22:00,
2013-05-01 04:27:00,49.9,44.3,30.02,East,86,0.0,0.0,81,0.00,,SCT,0.00,WeatherDisplay:10.37,2013-05-01 08:27:00,
2013-05-01 04:28:00,49.8,44.2,30.02,East,86,0.0,0.0,81,0.00,,SCT,0.00,WeatherDisplay:10.37,2013-05-01 08:28:00,
2013-05-01 04:29:00,49.8,44.2,30.02,East,86,0.0,0.0,81,0.00,,SCT,0.00,WeatherDisplay:10.37,2013-05-01 08:29:00,
2013-05-01 04:32:00,49.8,44.2,30.02,East,86,0.0,0.0,81,0.00,,SCT,0.00,WeatherDisplay:10.37,2013-05-01 08:32:00,
2013-05-01 04:34:00,49.8,44.5,30.02,East,86,0.0,0.0,82,0.00,,SCT,0.00,WeatherDisplay:10.37,2013-05-01 08:34:00,
2013-05-01 04:36:00,49.8,44.5,30.02,East,86,0.0,0.0,82,0.00,,SCT,0.00,WeatherDisplay:10.37,2013-05-01 08:36:00,
2013-05-01 04:37:00,49.8,44.2,30.02,East,86,0.0,0.0,81,0.00,,SCT,0.00,WeatherDisplay:10.37,2013-05-01 08:37:00,
2013-05-01 04:39:00,49.6,44.0,30.02,East,86,0.0,0.0,81,0.00,,SCT,0.00,WeatherDisplay:10.37,2013-05-01 08:39:00,
2013-05-01 04:40:00,49.6,44.0,30.02,East,86,0.0,0.0,81,0.00,,SCT,0.00,WeatherDisplay:10.37,2013-05-01 08:40:00,
2013-05-01 04:42:00,49.6,44.0,30.02,East,86,0.0,0.0,81,0.00,,SCT,0.00,WeatherDisplay:10.37,2013-05-01 08:42:00,
2013-05-01 04:44:00,49.5,43.9,30.02,East,86,0.0,0.0,81,0.00,,SCT,0.00,WeatherDisplay:10.37,2013-05-01 08:44:00,
2013-05-01 04:45:00,49.5,43.9,30.02,East,86,0.0,0.0,81,0.00,,SCT,0.00,WeatherDisplay:10.37,2013-05-01 08:45:00,
2013-05-01 04:47:00,49.5,43.9,30.02,East,86,0.0,0.0,81,0.00,,SCT,0.00,WeatherDisplay:10.37,2013-05-01 08:47:00,
2013-05-01 04:48:00,49.5,43.9,30.02,East,86,0.0,0.0,81,0.00,,SCT,0.00,WeatherDisplay:10.37,2013-05-01 08:48:00,
2013-05-01 04:50:00,49.5,44.2,30.02,East,86,0.0,0.0,82,0.00,,SCT,0.00,WeatherDisplay:10.37,2013-05-01 08:50:00,
2013-05-01 04:53:00,49.5,43.9,30.02,East,86,0.0,0.0,81,0.00,,SCT,0.00,WeatherDisplay:10.37,2013-05-01 08:53:00,
2013-05-01 04:55:00,49.5,44.2,30.02,East,86,0.0,0.0,82,0.00,,SCT,0.00,WeatherDisplay:10.37,2013-05-01 08:55:00,
2013-05-01 04:56:00,49.5,44.2,30.02,East,86,0.0,0.0,82,0.00,,SCT,0.00,WeatherDisplay:10.37,2013-05-01 08:56:00,
2013-05-01 04:59:00,49.5,44.2,30.02,East,86,0.0,0.0,82,0.00,,SCT,0.00,WeatherDisplay:10.37,2013-05-01 08:59:00,
2013-05-01 05:00:00,49.5,44.2,30.02,East,86,0.0,0.0,82,0.00,,SCT,0.00,WeatherDisplay:10.37,2013-05-01 09:00:00,
2013-05-01 05:02:00,49.4,44.1,30.02,East,86,0.0,0.0,82,0.00,,SCT,0.00,WeatherDisplay:10.37,2013-05-01 09:02:00,
2013-05-01 05:03:00,49.4,44.1,30.02,East,86,0.0,0.0,82,0.00,,SCT,0.00,WeatherDisplay:10.37,2013-05-01 09:03:00,
2013-05-01 05:05:00,49.2,43.9,30.02,East,86,0.0,0.0,82,0.00,,SCT,0.00,WeatherDisplay:10.37,2013-05-01 09:05:00,
2013-05-01 05:07:00,49.1,43.8,30.02,East,86,0.0,0.0,82,0.00,,SCT,0.00,WeatherDisplay:10.37,2013-05-01 09:07:00,
2013-05-01 05:09:00,48.9,43.6,30.02,East,86,0.0,0.0,82,0.00,,SCT,0.00,WeatherDisplay:10.37,2013-05-01 09:09:00,
2013-05-01 05:10:00,48.9,43.6,30.02,East,86,0.0,0.0,82,0.00,,SCT,0.00,WeatherDisplay:10.37,2013-05-01 09:10:00,
2013-05-01 05:11:00,48.9,43.6,30.02,East,86,0.0,0.0,82,0.00,,SCT,0.00,WeatherDisplay:10.37,2013-05-01 09:11:00,
2013-05-01 05:16:00,48.8,43.5,30.02,East,86,0.0,0.0,82,0.00,,SCT,0.00,WeatherDisplay:10.37,2013-05-01 09:16:00,
2013-05-01 05:17:00,48.8,43.5,30.02,East,86,0.0,0.0,82,0.00,,SCT,0.00,WeatherDisplay:10.37,2013-05-01 09:17:00,
2013-05-01 05:19:00,48.6,43.4,30.02,East,86,0.0,0.0,82,0.00,,SCT,0.00,WeatherDisplay:10.37,2013-05-01 09:19:00,
2013-05-01 05:22:00,48.6,43.4,30.02,East,86,0.0,0.0,82,0.00,,SCT,0.00,WeatherDisplay:10.37,2013-05-01 09:22:00,
2013-05-01 05:26:00,48.6,43.4,30.02,East,86,0.0,0.0,82,0.00,,SCT,0.00,WeatherDisplay:10.37,2013-05-01 09:26:00,
2013-05-01 05:28:00,48.6,43.4,30.02,East,86,0.0,0.0,82,0.00,,SCT,0.00,WeatherDisplay:10.37,2013-05-01 09:28:00,
2013-05-01 05:30:00,48.6,43.4,30.02,East,86,0.0,0.0,82,0.00,,SCT,0.00,WeatherDisplay:10.37,2013-05-01 09:30:00,
2013-05-01 05:31:00,48.6,43.4,30.02,East,86,0.0,0.0,82,0.00,,SCT,0.00,WeatherDisplay:10.37,2013-05-01 09:31:00,
2013-05-01 05:32:00,48.5,43.3,30.02,East,86,0.0,0.0,82,0.00,,SCT,0.00,WeatherDisplay:10.37,2013-05-01 09:32:00,
2013-05-01 05:35:00,48.5,43.3,30.02,East,86,0.0,0.0,82,0.00,,SCT,0.00,WeatherDisplay:10.37,2013-05-01 09:35:00,
2013-05-01 05:36:00,48.5,43.3,30.02,East,86,0.0,0.0,82,0.00,,SCT,0.00,WeatherDisplay:10.37,2013-05-01 09:36:00,
2013-05-01 05:37:00,48.5,43.3,30.02,East,86,0.0,0.0,82,0.00,,SCT,0.00,WeatherDisplay:10.37,2013-05-01 09:37:00,
2013-05-01 05:39:00,48.5,43.3,30.02,East,86,0.0,0.0,82,0.00,,SCT,0.00,WeatherDisplay:10.37,2013-05-01 09:39:00,
2013-05-01 05:41:00,48.5,43.3,30.02,East,86,0.0,0.0,82,0.00,,SCT,0.00,WeatherDisplay:10.37,2013-05-01 09:41:00,
2013-05-01 05:42:00,48.3,43.1,30.02,East,86,0.0,0.0,82,0.00,,SCT,0.00,WeatherDisplay:10.37,2013-05-01 09:42:00,
2013-05-01 05:43:00,48.3,43.1,30.02,East,86,0.0,0.0,82,0.00,,SCT,0.00,WeatherDisplay:10.37,2013-05-01 09:43:00,
2013-05-01 05:47:00,48.3,43.1,30.02,East,86,0.0,0.0,82,0.00,,SCT,0.00,WeatherDisplay:10.37,2013-05-01 09:47:00,
2013-05-01 05:48:00,48.3,43.1,30.02,East,86,0.0,0.0,82,0.00,,SCT,0.00,WeatherDisplay:10.37,2013-05-01 09:48:00,
2013-05-01 05:49:00,48.3,43.1,30.02,East,86,0.0,0.0,82,0.00,,SCT,0.00,WeatherDisplay:10.37,2013-05-01 09:49:00,
2013-05-01 05:50:00,48.3,43.1,30.02,East,86,0.0,0.0,82,0.00,,SCT,0.00,WeatherDisplay:10.37,2013-05-01 09:50:00,
2013-05-01 05:51:00,48.3,43.4,30.02,East,86,0.0,0.0,83,0.00,,SCT,0.00,WeatherDisplay:10.37,2013-05-01 09:51:00,
2013-05-01 05:52:00,48.3,43.1,30.02,East,86,0.0,0.0,82,0.00,,SCT,0.00,WeatherDisplay:10.37,2013-05-01 09:52:00,
2013-05-01 05:53:00,48.3,43.1,30.02,East,86,0.0,0.0,82,0.00,,SCT,0.00,WeatherDisplay:10.37,2013-05-01 09:53:00,
2013-05-01 05:55:00,48.2,43.3,30.02,East,86,0.0,0.0,83,0.00,,SCT,0.00,WeatherDisplay:10.37,2013-05-01 09:55:00,
2013-05-01 05:57:00,48.2,43.3,30.03,East,86,0.0,0.0,83,0.00,,SCT,0.00,WeatherDisplay:10.37,2013-05-01 09:57:00,
2013-05-01 05:58:00,48.2,43.3,30.03,East,86,0.0,0.0,83,0.00,,SCT,0.00,WeatherDisplay:10.37,2013-05-01 09:58:00,
2013-05-01 06:02:00,48.0,43.1,30.03,East,86,0.0,0.0,83,0.00,,SCT,0.00,WeatherDisplay:10.37,2013-05-01 10:02:00,
2013-05-01 06:04:00,47.9,43.0,30.03,East,86,0.0,0.0,83,0.00,,SCT,0.00,WeatherDisplay:10.37,2013-05-01 10:04:00,
2013-05-01 06:05:00,48.0,43.1,30.04,East,86,0.0,0.0,83,0.00,,SCT,0.00,WeatherDisplay:10.37,2013-05-01 10:05:00,
2013-05-01 06:06:00,48.0,43.1,30.04,East,86,0.0,0.0,83,0.00,,SCT,0.00,WeatherDisplay:10.37,2013-05-01 10:06:00,
2013-05-01 06:08:00,48.0,43.1,30.04,East,86,0.0,0.0,83,0.00,CLR,SCT,0.00,WeatherDisplay:10.37,2013-05-01 10:08:00,
2013-05-01 06:09:00,48.0,43.1,30.04,East,86,0.0,0.0,83,0.00,CLR,SCT,0.00,WeatherDisplay:10.37,2013-05-01 10:09:00,
2013-05-01 06:10:00,48.0,43.1,30.04,East,86,0.0,0.0,83,0.00,CLR,SCT,0.00,WeatherDisplay:10.37,2013-05-01 10:10:00,
2013-05-01 06:12:00,48.0,43.1,30.04,East,86,0.0,0.0,83,0.00,CLR,SCT,0.00,WeatherDisplay:10.37,2013-05-01 10:12:00,
2013-05-01 06:15:00,48.0,43.1,30.04,East,86,0.0,0.0,83,0.00,CLR,SCT,0.00,WeatherDisplay:10.37,2013-05-01 10:15:00,
2013-05-01 06:16:00,48.0,43.1,30.05,East,86,0.0,0.0,83,0.00,CLR,SCT,0.00,WeatherDisplay:10.37,2013-05-01 10:16:00,
2013-05-01 06:18:00,48.0,43.1,30.05,East,86,0.0,0.0,83,0.00,CLR,SCT,0.00,WeatherDisplay:10.37,2013-05-01 10:18:00,
2013-05-01 06:19:00,48.0,43.1,30.05,East,86,0.0,0.0,83,0.00,CLR,SCT,0.00,WeatherDisplay:10.37,2013-05-01 10:19:00,
2013-05-01 06:23:00,47.9,43.0,30.05,East,86,0.0,0.0,83,0.00,CLR,SCT,0.00,WeatherDisplay:10.37,2013-05-01 10:23:00,
2013-05-01 06:24:00,47.9,43.0,30.05,East,86,0.0,0.0,83,0.00,CLR,SCT,0.00,WeatherDisplay:10.37,2013-05-01 10:24:00,
2013-05-01 06:26:00,47.9,43.0,30.05,East,86,0.0,0.0,83,0.00,CLR,SCT,0.00,WeatherDisplay:10.37,2013-05-01 10:26:00,
2013-05-01 06:27:00,47.9,43.0,30.05,East,86,0.0,0.0,83,0.00,CLR,SCT,0.00,WeatherDisplay:10.37,2013-05-01 10:27:00,
2013-05-01 06:28:00,47.9,43.0,30.05,East,86,0.0,0.0,83,0.00,CLR,SCT,0.00,WeatherDisplay:10.37,2013-05-01 10:28:00,
2013-05-01 06:29:00,47.9,43.0,30.05,East,86,0.0,0.0,83,0.00,CLR,SCT,0.00,WeatherDisplay:10.37,2013-05-01 10:29:00,
2013-05-01 06:31:00,47.9,43.0,30.05,East,86,0.0,0.0,83,0.00,CLR,SCT,0.00,WeatherDisplay:10.37,2013-05-01 10:31:00,
2013-05-01 06:34:00,47.7,42.8,30.05,East,86,0.0,0.0,83,0.00,CLR,SCT,0.00,WeatherDisplay:10.37,2013-05-01 10:34:00,
2013-05-01 06:35:00,47.7,42.8,30.05,East,86,0.0,0.0,83,0.00,CLR,SCT,0.00,WeatherDisplay:10.37,2013-05-01 10:35:00,
2013-05-01 06:36:00,47.7,42.8,30.05,East,86,0.0,0.0,83,0.00,CLR,SCT,0.00,WeatherDisplay:10.37,2013-05-01 10:36:00,
2013-05-01 06:37:00,47.7,42.8,30.05,East,86,0.0,0.0,83,0.00,CLR,SCT,0.00,WeatherDisplay:10.37,2013-05-01 10:37:00,
2013-05-01 06:40:00,47.7,42.8,30.06,East,86,0.0,0.0,83,0.00,CLR,SCT,0.00,WeatherDisplay:10.37,2013-05-01 10:40:00,
2013-05-01 06:41:00,47.7,42.8,30.06,East,86,0.0,0.0,83,0.00,CLR,SCT,0.00,WeatherDisplay:10.37,2013-05-01 10:41:00,
2013-05-01 06:45:00,47.7,42.8,30.06,East,86,0.0,0.0,83,0.00,CLR,SCT,0.00,WeatherDisplay:10.37,2013-05-01 10:45:00,
2013-05-01 06:46:00,47.7,42.8,30.06,East,86,0.0,0.0,83,0.00,CLR,SCT,0.00,WeatherDisplay:10.37,2013-05-01 10:46:00,
2013-05-01 06:48:00,47.7,42.8,30.06,East,86,0.0,0.0,83,0.00,CLR,SCT,0.00,WeatherDisplay:10.37,2013-05-01 10:48:00,
2013-05-01 06:51:00,47.6,42.7,30.06,East,86,0.0,0.0,83,0.00,CLR,SCT,0.00,WeatherDisplay:10.37,2013-05-01 10:51:00,
2013-05-01 06:52:00,47.6,42.7,30.06,East,86,0.0,0.0,83,0.00,CLR,SCT,0.00,WeatherDisplay:10.37,2013-05-01 10:52:00,
2013-05-01 06:54:00,47.6,42.7,30.06,East,86,0.0,0.0,83,0.00,CLR,SCT,0.00,WeatherDisplay:10.37,2013-05-01 10:54:00,
2013-05-01 06:55:00,47.6,42.7,30.06,East,85,0.0,0.0,83,0.00,CLR,SCT,0.00,WeatherDisplay:10.37,2013-05-01 10:55:00,
2013-05-01 06:57:00,47.6,42.7,30.06,East,86,0.0,0.0,83,0.00,CLR,SCT,0.00,WeatherDisplay:10.37,2013-05-01 10:57:00,
2013-05-01 07:01:00,47.4,42.5,30.06,East,86,0.0,0.0,83,0.00,CLR,SCT,0.00,WeatherDisplay:10.37,2013-05-01 11:01:00,
2013-05-01 07:02:00,47.4,42.5,30.07,East,86,0.0,0.0,83,0.00,CLR,SCT,0.00,WeatherDisplay:10.37,2013-05-01 11:02:00,
2013-05-01 07:03:00,47.4,42.5,30.07,East,86,0.0,0.0,83,0.00,CLR,SCT,0.00,WeatherDisplay:10.37,2013-05-01 11:03:00,
2013-05-01 07:04:00,47.4,42.5,30.07,East,86,0.0,0.0,83,0.00,CLR,SCT,0.00,WeatherDisplay:10.37,2013-05-01 11:04:00,
2013-05-01 07:07:00,47.4,42.5,30.07,East,86,0.0,0.0,83,0.00,CLR,SCT,0.00,WeatherDisplay:10.37,2013-05-01 11:07:00,
2013-05-01 07:09:00,47.4,42.5,30.07,East,86,0.0,0.0,83,0.00,CLR,SCT,0.00,WeatherDisplay:10.37,2013-05-01 11:09:00,
2013-05-01 07:11:00,47.4,42.8,30.08,East,86,0.0,0.0,84,0.00,CLR,SCT,0.00,WeatherDisplay:10.37,2013-05-01 11:11:00,
2013-05-01 07:12:00,47.4,42.8,30.08,East,86,0.0,0.0,84,0.00,CLR,SCT,0.00,WeatherDisplay:10.37,2013-05-01 11:12:00,
2013-05-01 07:13:00,47.4,42.8,30.08,East,85,0.0,0.0,84,0.00,CLR,SCT,0.00,WeatherDisplay:10.37,2013-05-01 11:13:00,
2013-05-01 07:15:00,47.4,42.8,30.08,East,86,0.0,0.0,84,0.00,CLR,SCT,0.00,WeatherDisplay:10.37,2013-05-01 11:15:00,
2013-05-01 07:17:00,47.6,43.0,30.07,East,86,0.0,0.0,84,0.00,CLR,SCT,0.00,WeatherDisplay:10.37,2013-05-01 11:17:00,
2013-05-01 07:22:00,47.6,43.0,30.08,East,86,0.0,0.0,84,0.00,CLR,SCT,0.00,WeatherDisplay:10.37,2013-05-01 11:22:00,
2013-05-01 07:23:00,47.6,43.0,30.08,East,86,0.0,0.0,84,0.00,CLR,SCT,0.00,WeatherDisplay:10.37,2013-05-01 11:23:00,
2013-05-01 07:27:00,47.9,43.3,30.08,East,86,0.0,0.0,84,0.00,CLR,SCT,0.00,WeatherDisplay:10.37,2013-05-01 11:27:00,
2013-05-01 07:28:00,48.0,43.4,30.08,East,84,0.0,0.0,84,0.00,CLR,SCT,0.00,WeatherDisplay:10.37,2013-05-01 11:28:00,
2013-05-01 07:30:00,48.2,43.6,30.08,East,81,0.0,0.0,84,0.00,CLR,SCT,0.00,WeatherDisplay:10.37,2013-05-01 11:30:00,
2013-05-01 07:31:00,48.2,43.6,30.08,East,81,0.0,0.0,84,0.00,CLR,SCT,0.00,WeatherDisplay:10.37,2013-05-01 11:31:00,
2013-05-01 07:33:00,48.5,43.9,30.08,ENE,73,0.0,0.0,84,0.00,CLR,SCT,0.00,WeatherDisplay:10.37,2013-05-01 11:33:00,
2013-05-01 07:34:00,48.5,43.9,30.08,ENE,73,0.0,0.0,84,0.00,CLR,SCT,0.00,WeatherDisplay:10.37,2013-05-01 11:34:00,
2013-05-01 07:35:00,48.6,44.0,30.08,ENE,73,0.0,0.0,84,0.00,CLR,SCT,0.00,WeatherDisplay:10.37,2013-05-01 11:35:00,
2013-05-01 07:39:00,49.1,44.5,30.08,ENE,73,0.0,0.0,84,0.00,CLR,SCT,0.00,WeatherDisplay:10.37,2013-05-01 11:39:00,
2013-05-01 07:40:00,49.1,44.5,30.08,ENE,73,0.0,0.0,84,0.00,CLR,SCT,0.00,WeatherDisplay:10.37,2013-05-01 11:40:00,
2013-05-01 07:42:00,49.4,44.8,30.08,ENE,73,0.0,0.0,84,0.00,CLR,SCT,0.00,WeatherDisplay:10.37,2013-05-01 11:42:00,
2013-05-01 07:44:00,49.6,45.3,30.08,ENE,73,0.0,0.0,85,0.00,CLR,SCT,0.00,WeatherDisplay:10.37,2013-05-01 11:44:00,
2013-05-01 07:46:00,49.9,45.6,30.08,ENE,73,0.0,0.0,85,0.00,CLR,SCT,0.00,WeatherDisplay:10.37,2013-05-01 11:46:00,
2013-05-01 07:48:00,50.2,45.9,30.08,ENE,73,0.0,0.0,85,0.00,CLR,SCT,0.00,WeatherDisplay:10.37,2013-05-01 11:48:00,
2013-05-01 07:49:00,50.4,46.1,30.08,ENE,73,0.0,0.0,85,0.00,CLR,SCT,0.00,WeatherDisplay:10.37,2013-05-01 11:49:00,
2013-05-01 07:50:00,50.5,46.2,30.08,ENE,73,0.0,0.0,85,0.00,CLR,SCT,0.00,WeatherDisplay:10.37,2013-05-01 11:50:00,
2013-05-01 07:51:00,50.7,46.4,30.08,ENE,73,0.0,0.0,85,0.00,CLR,SCT,0.00,WeatherDisplay:10.37,2013-05-01 11:51:00,
2013-05-01 07:54:00,51.1,46.7,30.08,ENE,73,0.0,0.0,85,0.00,CLR,SCT,0.00,WeatherDisplay:10.37,2013-05-01 11:54:00,
2013-05-01 07:56:00,51.3,46.9,30.08,ENE,73,0.0,0.0,85,0.00,CLR,SCT,0.00,WeatherDisplay:10.37,2013-05-01 11:56:00,
2013-05-01 07:57:00,51.4,47.0,30.08,ENE,73,0.0,0.0,85,0.00,CLR,SCT,0.00,WeatherDisplay:10.37,2013-05-01 11:57:00,
2013-05-01 07:58:00,51.6,47.2,30.08,ENE,73,0.0,0.0,85,0.00,CLR,SCT,0.00,WeatherDisplay:10.37,2013-05-01 11:58:00,
2013-05-01 08:02:00,52.0,47.6,30.08,ENE,69,0.0,0.0,85,0.00,CLR,SCT,0.00,WeatherDisplay:10.37,2013-05-01 12:02:00,
2013-05-01 08:05:00,52.6,48.2,30.08,ENE,69,0.0,0.0,85,0.00,CLR,SCT,0.00,WeatherDisplay:10.37,2013-05-01 12:05:00,
2013-05-01 08:08:00,53.1,48.7,30.08,ENE,69,0.0,0.0,85,0.00,CLR,SCT,0.00,WeatherDisplay:10.37,2013-05-01 12:08:00,
2013-05-01 08:09:00,53.2,49.1,30.08,ENE,69,0.0,0.0,86,0.00,CLR,SCT,0.00,WeatherDisplay:10.37,2013-05-01 12:09:00,
2013-05-01 08:11:00,53.5,49.4,30.08,ENE,69,0.0,0.0,86,0.00,CLR,SCT,0.00,WeatherDisplay:10.37,2013-05-01 12:11:00,
2013-05-01 08:13:00,53.9,49.8,30.08,ENE,69,0.0,0.0,86,0.00,CLR,SCT,0.00,WeatherDisplay:10.37,2013-05-01 12:13:00,
2013-05-01 08:14:00,53.9,49.8,30.08,ENE,69,0.0,0.0,86,0.00,CLR,SCT,0.00,WeatherDisplay:10.37,2013-05-01 12:14:00,
2013-05-01 08:16:00,54.4,50.3,30.08,ENE,69,0.0,0.0,86,0.00,CLR,SCT,0.00,WeatherDisplay:10.37,2013-05-01 12:16:00,
2013-05-01 08:19:00,55.0,50.9,30.08,ENE,69,0.0,0.0,86,0.00,CLR,SCT,0.00,WeatherDisplay:10.37,2013-05-01 12:19:00,
2013-05-01 08:21:00,55.3,51.2,30.08,ENE,69,0.0,0.0,86,0.00,CLR,SCT,0.00,WeatherDisplay:10.37,2013-05-01 12:21:00,
2013-05-01 08:22:00,55.6,51.5,30.08,ENE,69,0.0,0.0,86,0.00,CLR,SCT,0.00,WeatherDisplay:10.37,2013-05-01 12:22:00,
2013-05-01 08:24:00,55.9,51.8,30.08,ENE,69,0.0,0.0,86,0.00,CLR,SCT,0.00,WeatherDisplay:10.37,2013-05-01 12:24:00,
2013-05-01 08:27:00,56.5,52.4,30.08,ENE,69,0.0,0.0,86,0.00,CLR,SCT,0.00,WeatherDisplay:10.37,2013-05-01 12:27:00,
2013-05-01 08:29:00,56.9,52.8,30.08,ENE,69,0.0,0.0,86,0.00,CLR,SCT,0.00,WeatherDisplay:10.37,2013-05-01 12:29:00,
2013-05-01 08:30:00,57.0,52.9,30.08,ENE,69,0.0,0.0,86,0.00,CLR,SCT,0.00,WeatherDisplay:10.37,2013-05-01 12:30:00,
2013-05-01 08:34:00,58.0,53.8,30.08,ENE,69,0.0,0.0,86,0.00,CLR,SCT,0.00,WeatherDisplay:10.37,2013-05-01 12:34:00,
2013-05-01 08:35:00,58.1,53.9,30.08,ENE,69,0.0,0.0,86,0.00,CLR,SCT,0.00,WeatherDisplay:10.37,2013-05-01 12:35:00,
2013-05-01 08:37:00,58.6,54.4,30.08,ENE,69,0.0,0.0,86,0.00,CLR,SCT,0.00,WeatherDisplay:10.37,2013-05-01 12:37:00,
2013-05-01 08:40:00,59.2,55.0,30.08,ENE,69,0.0,0.0,86,0.00,CLR,SCT,0.00,WeatherDisplay:10.37,2013-05-01 12:40:00,
2013-05-01 08:41:00,59.5,55.3,30.08,ENE,69,0.0,0.0,86,0.00,CLR,SCT,0.00,WeatherDisplay:10.37,2013-05-01 12:41:00,
2013-05-01 08:43:00,59.9,55.7,30.08,ENE,69,0.0,0.0,86,0.00,CLR,SCT,0.00,WeatherDisplay:10.37,2013-05-01 12:43:00,
2013-05-01 08:44:00,60.1,55.9,30.08,ENE,69,0.0,0.0,86,0.00,CLR,SCT,0.00,WeatherDisplay:10.37,2013-05-01 12:44:00,
2013-05-01 08:46:00,60.5,56.0,30.08,ENE,69,2.3,2.3,85,0.00,CLR,SCT,0.00,WeatherDisplay:10.37,2013-05-01 12:46:00,
2013-05-01 08:49:00,61.0,56.1,30.08,WNW,303,6.9,6.9,84,0.00,CLR,SCT,0.00,WeatherDisplay:10.37,2013-05-01 12:49:00,
2013-05-01 08:51:00,61.3,56.4,30.08,North,5,0.0,0.0,84,0.00,CLR,SCT,0.00,WeatherDisplay:10.37,2013-05-01 12:51:00,
2013-05-01 08:54:00,61.6,56.7,30.08,North,355,0.0,0.0,84,0.00,CLR,SCT,0.00,WeatherDisplay:10.37,2013-05-01 12:54:00,
2013-05-01 08:55:00,61.8,56.9,30.08,North,355,0.0,0.0,84,0.00,CLR,SCT,0.00,WeatherDisplay:10.37,2013-05-01 12:55:00,
2013-05-01 08:56:00,61.8,56.9,30.08,North,355,1.0,0.0,84,0.00,CLR,SCT,0.00,WeatherDisplay:10.37,2013-05-01 12:56:00,
2013-05-01 09:00:00,62.3,57.1,30.08,ENE,60,4.6,4.6,83,0.00,CLR,SCT,0.00,WeatherDisplay:10.37,2013-05-01 13:00:00,
2013-05-01 09:01:00,62.4,57.2,30.08,ENE,60,5.8,5.8,83,0.00,CLR,SCT,0.00,WeatherDisplay:10.37,2013-05-01 13:01:00,
2013-05-01 09:02:00,62.4,57.2,30.08,ENE,60,5.8,5.8,83,0.00,CLR,SCT,0.00,WeatherDisplay:10.37,2013-05-01 13:02:00,
2013-05-01 09:03:00,62.6,57.4,30.08,ENE,60,6.0,6.0,83,0.00,CLR,SCT,0.00,WeatherDisplay:10.37,2013-05-01 13:03:00,
2013-05-01 09:07:00,62.9,57.3,30.08,ENE,63,6.9,6.9,82,0.00,CLR,SCT,0.00,WeatherDisplay:10.37,2013-05-01 13:07:00,
2013-05-01 09:08:00,62.9,57.0,30.08,ENE,63,6.9,6.9,81,0.00,CLR,SCT,0.00,WeatherDisplay:10.37,2013-05-01 13:08:00,
2013-05-01 09:09:00,63.1,57.2,30.08,ENE,63,6.9,6.9,81,0.00,CLR,SCT,0.00,WeatherDisplay:10.37,2013-05-01 13:09:00,
2013-05-01 09:13:00,63.2,56.9,30.08,ENE,65,6.9,7.1,80,0.00,CLR,SCT,0.00,WeatherDisplay:10.37,2013-05-01 13:13:00,
2013-05-01 09:14:00,63.4,57.1,30.08,ENE,63,9.2,9.2,80,0.00,CLR,SCT,0.00,WeatherDisplay:10.37,2013-05-01 13:14:00,
2013-05-01 09:16:00,63.4,57.1,30.08,ENE,63,9.2,9.2,80,0.00,CLR,SCT,0.00,WeatherDisplay:10.37,2013-05-01 13:16:00,
2013-05-01 09:17:00,63.5,57.2,30.08,ENE,63,9.2,9.2,80,0.00,CLR,SCT,0.00,WeatherDisplay:10.37,2013-05-01 13:17:00,
2013-05-01 09:19:00,63.7,57.1,30.08,ENE,64,5.8,5.8,79,0.00,CLR,SCT,0.00,WeatherDisplay:10.37,2013-05-01 13:19:00,
2013-05-01 09:21:00,63.9,57.3,30.08,ENE,70,6.9,6.9,79,0.00,CLR,SCT,0.00,WeatherDisplay:10.37,2013-05-01 13:21:00,
2013-05-01 09:22:00,63.9,56.9,30.08,ENE,61,6.9,6.9,78,0.00,CLR,SCT,0.00,WeatherDisplay:10.37,2013-05-01 13:22:00,
2013-05-01 09:25:00,64.2,57.2,30.08,ENE,62,6.9,6.9,78,0.00,CLR,SCT,0.00,WeatherDisplay:10.37,2013-05-01 13:25:00,
2013-05-01 09:26:00,64.2,57.2,30.08,ENE,62,6.9,6.9,78,0.00,CLR,SCT,0.00,WeatherDisplay:10.37,2013-05-01 13:26:00,
2013-05-01 09:27:00,64.3,57.3,30.08,ENE,62,5.8,5.8,78,0.00,CLR,SCT,0.00,WeatherDisplay:10.37,2013-05-01 13:27:00,
2013-05-01 09:31:00,64.7,57.7,30.08,ENE,64,5.8,5.8,78,0.00,CLR,SCT,0.00,WeatherDisplay:10.37,2013-05-01 13:31:00,
2013-05-01 09:32:00,64.8,57.4,30.08,ENE,64,9.2,9.2,77,0.00,CLR,SCT,0.00,WeatherDisplay:10.37,2013-05-01 13:32:00,
2013-05-01 09:35:00,65.0,57.2,30.08,ENE,63,8.1,8.1,76,0.00,CLR,SCT,0.00,WeatherDisplay:10.37,2013-05-01 13:35:00,
2013-05-01 09:36:00,65.2,57.4,30.08,ENE,77,9.2,9.2,76,0.00,CLR,SCT,0.00,WeatherDisplay:10.37,2013-05-01 13:36:00,
2013-05-01 09:37:00,65.2,57.4,30.08,ENE,77,9.2,9.2,76,0.00,CLR,SCT,0.00,WeatherDisplay:10.37,2013-05-01 13:37:00,
2013-05-01 09:39:00,65.3,57.5,30.08,ENE,74,8.0,8.0,76,0.00,CLR,SCT,0.00,WeatherDisplay:10.37,2013-05-01 13:39:00,
2013-05-01 09:41:00,65.3,57.2,30.08,ENE,62,11.5,11.5,75,0.00,CLR,SCT,0.00,WeatherDisplay:10.37,2013-05-01 13:41:00,
2013-05-01 09:42:00,65.3,56.8,30.08,ENE,62,11.5,11.5,74,0.00,CLR,SCT,0.00,WeatherDisplay:10.37,2013-05-01 13:42:00,
2013-05-01 09:44:00,65.3,56.8,30.08,ENE,62,5.8,5.8,74,0.00,CLR,SCT,0.00,WeatherDisplay:10.37,2013-05-01 13:44:00,
2013-05-01 09:46:00,65.3,56.8,30.08,ENE,62,5.8,5.8,74,0.00,CLR,SCT,0.00,WeatherDisplay:10.37,2013-05-01 13:46:00,
2013-05-01 09:49:00,65.3,57.2,30.08,ENE,61,4.6,4.6,75,0.00,CLR,SCT,0.00,WeatherDisplay:10.37,2013-05-01 13:49:00,
2013-05-01 09:51:00,65.3,56.8,30.08,ENE,65,11.0,11.0,74,0.00,CLR,SCT,0.00,WeatherDisplay:10.37,2013-05-01 13:51:00,
2013-05-01 09:52:00,65.3,56.8,30.08,ENE,63,11.5,11.5,74,0.00,CLR,SCT,0.00,WeatherDisplay:10.37,2013-05-01 13:52:00,
2013-05-01 09:55:00,65.3,56.8,30.08,ENE,59,6.9,6.9,74,0.00,CLR,SCT,0.00,WeatherDisplay:10.37,2013-05-01 13:55:00,
2013-05-01 09:56:00,65.3,56.4,30.08,ENE,67,6.9,6.9,73,0.00,CLR,SCT,0.00,WeatherDisplay:10.37,2013-05-01 13:56:00,
2013-05-01 09:57:00,65.3,56.4,30.08,ENE,64,10.0,10.0,73,0.00,CLR,SCT,0.00,WeatherDisplay:10.37,2013-05-01 13:57:00,
2013-05-01 10:00:00,65.3,56.4,30.08,ENE,63,6.9,6.9,73,0.00,CLR,SCT,0.00,WeatherDisplay:10.37,2013-05-01 14:00:00,
2013-05-01 10:01:00,65.3,56.4,30.08,ENE,67,9.2,9.2,73,0.00,CLR,SCT,0.00,WeatherDisplay:10.37,2013-05-01 14:01:00,
2013-05-01 10:02:00,65.3,56.4,30.08,ENE,65,8.1,8.1,73,0.00,CLR,SCT,0.00,WeatherDisplay:10.37,2013-05-01 14:02:00,
2013-05-01 10:03:00,65.3,56.4,30.08,NE,37,10.4,10.4,73,0.00,CLR,SCT,0.00,WeatherDisplay:10.37,2013-05-01 14:03:00,
2013-05-01 10:06:00,65.3,56.4,30.09,ENE,67,9.2,9.2,73,0.00,CLR,SCT,0.00,WeatherDisplay:10.37,2013-05-01 14:06:00,
2013-05-01 10:07:00,65.3,56.4,30.09,ENE,67,8.1,8.1,73,0.00,CLR,SCT,0.00,WeatherDisplay:10.37,2013-05-01 14:07:00,
2013-05-01 10:09:00,65.5,56.6,30.09,ENE,61,10.4,10.4,73,0.00,CLR,SCT,0.00,WeatherDisplay:10.37,2013-05-01 14:09:00,
2013-05-01 10:10:00,65.6,56.7,30.09,ENE,62,11.5,11.5,73,0.00,CLR,SCT,0.00,WeatherDisplay:10.37,2013-05-01 14:10:00,
2013-05-01 10:12:00,65.8,56.5,30.09,ENE,59,11.5,11.5,72,0.00,CLR,SCT,0.00,WeatherDisplay:10.37,2013-05-01 14:12:00,
2013-05-01 10:14:00,65.8,56.5,30.09,ENE,57,10.4,10.4,72,0.00,CLR,SCT,0.00,WeatherDisplay:10.37,2013-05-01 14:14:00,
2013-05-01 10:15:00,65.8,56.1,30.09,ENE,68,11.5,11.5,71,0.00,CLR,SCT,0.00,WeatherDisplay:10.37,2013-05-01 14:15:00,
2013-05-01 10:17:00,66.0,56.7,30.09,NE,47,10.4,10.4,72,0.00,CLR,SCT,0.00,WeatherDisplay:10.37,2013-05-01 14:17:00,
2013-05-01 10:18:00,66.0,56.7,30.09,NE,55,10.4,10.4,72,0.00,CLR,SCT,0.00,WeatherDisplay:10.37,2013-05-01 14:18:00,
2013-05-01 10:20:00,66.0,56.3,30.09,ENE,66,10.4,10.4,71,0.00,CLR,SCT,0.00,WeatherDisplay:10.37,2013-05-01 14:20:00,
2013-05-01 10:21:00,66.0,56.7,30.09,NE,48,10.4,10.4,72,0.00,CLR,SCT,0.00,WeatherDisplay:10.37,2013-05-01 14:21:00,
2013-05-01 10:22:00,66.0,56.3,30.09,ENE,72,10.4,10.4,71,0.00,CLR,SCT,0.00,WeatherDisplay:10.37,2013-05-01 14:22:00,
2013-05-01 10:24:00,66.0,55.9,30.09,ENE,64,15.0,15.0,70,0.00,CLR,SCT,0.00,WeatherDisplay:10.37,2013-05-01 14:24:00,
2013-05-01 10:26:00,66.0,56.3,30.09,NE,53,12.7,12.7,71,0.00,CLR,SCT,0.00,WeatherDisplay:10.37,2013-05-01 14:26:00,
2013-05-01 10:27:00,66.0,56.3,30.09,ENE,61,12.7,12.7,71,0.00,CLR,SCT,0.00,WeatherDisplay:10.37,2013-05-01 14:27:00,
2013-05-01 10:31:00,66.0,56.3,30.09,ENE,63,11.5,11.5,71,0.00,CLR,SCT,0.00,WeatherDisplay:10.37,2013-05-01 14:31:00,
2013-05-01 10:32:00,66.0,56.3,30.09,ENE,68,11.5,11.5,71,0.00,CLR,SCT,0.00,WeatherDisplay:10.37,2013-05-01 14:32:00,
2013-05-01 10:33:00,66.0,55.9,30.09,ENE,72,11.5,11.5,70,0.00,CLR,SCT,0.00,WeatherDisplay:10.37,2013-05-01 14:33:00,
2013-05-01 10:37:00,66.1,56.0,30.09,NE,44,9.2,9.2,70,0.00,CLR,SCT,0.00,WeatherDisplay:10.37,2013-05-01 14:37:00,
2013-05-01 10:38:00,66.3,56.2,30.09,NE,43,9.2,9.2,70,0.00,CLR,SCT,0.00,WeatherDisplay:10.37,2013-05-01 14:38:00,
2013-05-01 10:40:00,66.4,56.3,30.09,NE,51,11.5,11.5,70,0.00,CLR,SCT,0.00,WeatherDisplay:10.37,2013-05-01 14:40:00,
2013-05-01 10:41:00,66.4,56.3,30.09,NE,49,10.4,10.4,70,0.00,CLR,SCT,0.00,WeatherDisplay:10.37,2013-05-01 14:41:00,
2013-05-01 10:42:00,66.4,56.3,30.09,ENE,63,9.2,9.2,70,0.00,CLR,SCT,0.00,WeatherDisplay:10.37,2013-05-01 14:42:00,
2013-05-01 10:45:00,66.8,56.7,30.09,ENE,61,14.0,14.0,70,0.00,CLR,SCT,0.00,WeatherDisplay:10.37,2013-05-01 14:45:00,
2013-05-01 10:46:00,66.8,56.7,30.10,ENE,57,13.8,13.8,70,0.00,CLR,SCT,0.00,WeatherDisplay:10.37,2013-05-01 14:46:00,
2013-05-01 10:49:00,66.9,56.4,30.10,ENE,65,12.7,12.7,69,0.00,CLR,SCT,0.00,WeatherDisplay:10.37,2013-05-01 14:49:00,
2013-05-01 10:50:00,66.9,56.4,30.10,ENE,62,11.5,11.5,69,0.00,CLR,SCT,0.00,WeatherDisplay:10.37,2013-05-01 14:50:00,
2013-05-01 10:51:00,67.1,56.6,30.10,East,80,11.5,11.5,69,0.00,CLR,SCT,0.00,WeatherDisplay:10.37,2013-05-01 14:51:00,
2013-05-01 10:55:00,67.1,56.6,30.10,ENE,64,12.7,12.7,69,0.00,CLR,SCT,0.00,WeatherDisplay:10.37,2013-05-01 14:55:00,
2013-05-01 10:56:00,67.3,56.8,30.10,ENE,65,12.7,12.7,69,0.00,CLR,SCT,0.00,WeatherDisplay:10.37,2013-05-01 14:56:00,
2013-05-01 11:00:00,67.4,56.9,30.10,ENE,71,9.2,9.2,69,0.00,CLR,SCT,0.00,WeatherDisplay:10.37,2013-05-01 15:00:00,
2013-05-01 11:01:00,67.4,56.9,30.10,ENE,74,10.4,10.4,69,0.00,CLR,SCT,0.00,WeatherDisplay:10.37,2013-05-01 15:01:00,
2013-05-01 11:02:00,67.6,57.1,30.10,NE,56,11.5,11.5,69,0.00,CLR,SCT,0.00,WeatherDisplay:10.37,2013-05-01 15:02:00,
2013-05-01 11:05:00,67.8,57.3,30.10,ENE,59,11.5,11.5,69,0.00,CLR,SCT,0.00,WeatherDisplay:10.37,2013-05-01 15:05:00,
2013-05-01 11:06:00,67.8,56.9,30.10,ENE,65,13.8,13.8,68,0.00,CLR,SCT,0.00,WeatherDisplay:10.37,2013-05-01 15:06:00,
2013-05-01 11:07:00,67.8,56.9,30.10,ENE,61,13.8,13.8,68,0.00,CLR,SCT,0.00,WeatherDisplay:10.37,2013-05-01 15:07:00,
2013-05-01 11:11:00,67.9,56.9,30.11,ENE,57,12.7,12.7,68,0.00,CLR,SCT,0.00,WeatherDisplay:10.37,2013-05-01 15:11:00,
2013-05-01 11:13:00,67.9,57.4,30.11,ENE,61,10.0,10.0,69,0.00,CLR,SCT,0.00,WeatherDisplay:10.37,2013-05-01 15:13:00,
2013-05-01 11:14:00,67.9,56.9,30.11,ENE,57,11.5,11.5,68,0.00,CLR,SCT,0.00,WeatherDisplay:10.37,2013-05-01 15:14:00,
2013-05-01 11:15:00,68.1,56.7,30.11,NE,51,10.4,10.4,67,0.00,CLR,SCT,0.00,WeatherDisplay:10.37,2013-05-01 15:15:00,
2013-05-01 11:17:00,68.1,57.1,30.11,NE,51,9.2,9.2,68,0.00,CLR,SCT,0.00,WeatherDisplay:10.37,2013-05-01 15:17:00,
2013-05-01 11:19:00,68.3,57.3,30.12,ENE,71,9.2,9.2,68,0.00,CLR,SCT,0.00,WeatherDisplay:10.37,2013-05-01 15:19:00,
2013-05-01 11:23:00,68.4,57.0,30.12,East,88,8.1,8.1,67,0.00,CLR,SCT,0.00,WeatherDisplay:10.37,2013-05-01 15:23:00,
2013-05-01 11:25:00,68.4,57.0,30.12,ENE,76,9.2,9.2,67,0.00,CLR,SCT,0.00,WeatherDisplay:10.37,2013-05-01 15:25:00,
2013-05-01 11:27:00,68.4,56.6,30.12,ENE,63,10.4,10.4,66,0.00,CLR,SCT,0.00,WeatherDisplay:10.37,2013-05-01 15:27:00,
2013-05-01 11:29:00,68.4,56.6,30.11,NE,42,11.5,11.5,66,0.00,CLR,SCT,0.00,WeatherDisplay:10.37,2013-05-01 15:29:00,
2013-05-01 11:30:00,68.4,56.6,30.11,NE,44,11.5,11.5,66,0.00,CLR,SCT,0.00,WeatherDisplay:10.37,2013-05-01 15:30:00,
2013-05-01 11:32:00,68.3,56.9,30.11,ENE,67,11.5,11.5,67,0.00,CLR,SCT,0.00,WeatherDisplay:10.37,2013-05-01 15:32:00,
2013-05-01 11:34:00,68.3,56.5,30.11,NE,52,11.5,11.5,66,0.00,CLR,SCT,0.00,WeatherDisplay:10.37,2013-05-01 15:34:00,
2013-05-01 11:35:00,68.3,56.9,30.10,ENE,75,11.5,11.5,67,0.00,CLR,SCT,0.00,WeatherDisplay:10.37,2013-05-01 15:35:00,
2013-05-01 11:36:00,68.3,56.9,30.10,ENE,63,11.5,11.5,67,0.00,CLR,SCT,0.00,WeatherDisplay:10.37,2013-05-01 15:36:00,
2013-05-01 11:38:00,68.4,56.6,30.10,ENE,63,9.2,9.2,66,0.00,CLR,SCT,0.00,WeatherDisplay:10.37,2013-05-01 15:38:00,
2013-05-01 11:40:00,68.6,57.2,30.10,North,11,11.5,11.5,67,0.00,CLR,SCT,0.00,WeatherDisplay:10.37,2013-05-01 15:40:00,
2013-05-01 11:41:00,68.6,56.8,30.10,NNE,12,11.5,11.5,66,0.00,CLR,SCT,0.00,WeatherDisplay:10.37,2013-05-01 15:41:00,
2013-05-01 11:42:00,68.6,56.8,30.10,NE,41,11.5,11.5,66,0.00,CLR,SCT,0.00,WeatherDisplay:10.37,2013-05-01 15:42:00,
2013-05-01 11:45:00,68.6,56.4,30.10,ENE,63,12.7,12.7,65,0.00,CLR,SCT,0.00,WeatherDisplay:10.37,2013-05-01 15:45:00,
2013-05-01 11:47:00,68.6,56.8,30.10,ENE,63,7.0,7.0,66,0.00,CLR,SCT,0.00,WeatherDisplay:10.37,2013-05-01 15:47:00,
2013-05-01 11:48:00,68.8,57.0,30.10,ENE,63,6.9,6.9,66,0.00,CLR,SCT,0.00,WeatherDisplay:10.37,2013-05-01 15:48:00,
2013-05-01 11:50:00,68.8,57.0,30.10,ENE,65,11.5,11.5,66,0.00,CLR,SCT,0.00,WeatherDisplay:10.37,2013-05-01 15:50:00,
2013-05-01 11:53:00,69.1,57.3,30.10,ENE,72,8.1,8.1,66,0.00,CLR,SCT,0.00,WeatherDisplay:10.37,2013-05-01 15:53:00,
2013-05-01 11:54:00,69.1,57.7,30.10,NE,53,14.0,14.0,67,0.00,CLR,SCT,0.00,WeatherDisplay:10.37,2013-05-01 15:54:00,
2013-05-01 11:55:00,69.3,57.9,30.10,ENE,68,13.8,13.8,67,0.00,CLR,SCT,0.00,WeatherDisplay:10.37,2013-05-01 15:55:00,
2013-05-01 11:56:00,69.3,57.0,30.10,ENE,63,12.7,12.7,65,0.00,CLR,SCT,0.00,WeatherDisplay:10.37,2013-05-01 15:56:00,
2013-05-01 11:57:00,69.4,57.1,30.10,ENE,63,11.5,11.5,65,0.00,CLR,SCT,0.00,WeatherDisplay:10.37,2013-05-01 15:57:00,
2013-05-01 11:58:00,69.4,57.5,30.10,ENE,57,11.5,11.5,66,0.00,CLR,SCT,0.00,WeatherDisplay:10.37,2013-05-01 15:58:00,
2013-05-01 12:00:00,69.6,57.3,30.10,East,82,12.7,12.7,65,0.00,CLR,SCT,0.00,WeatherDisplay:10.37,2013-05-01 16:00:00,
2013-05-01 12:02:00,69.6,56.9,30.10,ESE,109,13.8,13.8,64,0.00,CLR,SCT,0.00,WeatherDisplay:10.37,2013-05-01 16:02:00,
2013-05-01 12:03:00,69.6,57.3,30.10,East,90,15.0,15.0,65,0.00,CLR,SCT,0.00,WeatherDisplay:10.37,2013-05-01 16:03:00,
2013-05-01 12:04:00,69.6,56.9,30.09,East,90,11.5,11.5,64,0.00,CLR,SCT,0.00,WeatherDisplay:10.37,2013-05-01 16:04:00,
2013-05-01 12:05:00,69.6,57.3,30.09,ESE,117,11.5,11.5,65,0.00,CLR,SCT,0.00,WeatherDisplay:10.37,2013-05-01 16:05:00,
2013-05-01 12:06:00,69.6,57.7,30.10,ENE,61,13.0,13.0,66,0.00,CLR,SCT,0.00,WeatherDisplay:10.37,2013-05-01 16:06:00,
2013-05-01 12:08:00,69.6,56.9,30.09,ENE,63,15.0,15.0,64,0.00,CLR,SCT,0.00,WeatherDisplay:10.37,2013-05-01 16:08:00,
2013-05-01 12:10:00,69.8,57.5,30.09,East,88,13.8,13.8,65,0.00,CLR,SCT,0.00,WeatherDisplay:10.37,2013-05-01 16:10:00,
2013-05-01 12:13:00,69.8,57.1,30.09,ENE,78,12.7,12.7,64,0.00,CLR,SCT,0.00,WeatherDisplay:10.37,2013-05-01 16:13:00,
2013-05-01 12:17:00,69.8,56.6,30.09,ENE,73,16.1,16.1,63,0.00,CLR,SCT,0.00,WeatherDisplay:10.37,2013-05-01 16:17:00,
2013-05-01 12:19:00,69.4,56.3,30.09,ENE,78,13.8,13.8,63,0.00,CLR,SCT,0.00,WeatherDisplay:10.37,2013-05-01 16:19:00,
2013-05-01 12:20:00,69.3,56.2,30.09,East,88,12.7,12.7,63,0.00,CLR,SCT,0.00,WeatherDisplay:10.37,2013-05-01 16:20:00,
2013-05-01 12:22:00,69.1,56.0,30.09,ENE,65,11.5,11.5,63,0.00,CLR,SCT,0.00,WeatherDisplay:10.37,2013-05-01 16:22:00,
2013-05-01 12:26:00,69.1,56.0,30.09,East,85,10.4,10.4,63,0.00,CLR,SCT,0.00,WeatherDisplay:10.37,2013-05-01 16:26:00,
2013-05-01 12:27:00,69.1,56.8,30.09,East,94,12.7,12.7,65,0.00,CLR,SCT,0.00,WeatherDisplay:10.37,2013-05-01 16:27:00,
2013-05-01 12:28:00,69.1,56.4,30.09,East,82,13.0,13.0,64,0.00,CLR,SCT,0.00,WeatherDisplay:10.37,2013-05-01 16:28:00,
2013-05-01 12:29:00,69.1,56.4,30.09,East,88,13.0,13.0,64,0.00,CLR,SCT,0.00,WeatherDisplay:10.37,2013-05-01 16:29:00,
2013-05-01 12:31:00,69.1,56.4,30.09,East,87,13.8,13.8,64,0.00,CLR,SCT,0.00,WeatherDisplay:10.37,2013-05-01 16:31:00,
2013-05-01 12:34:00,69.3,57.0,30.09,East,93,11.5,11.5,65,0.00,CLR,SCT,0.00,WeatherDisplay:10.37,2013-05-01 16:34:00,
2013-05-01 12:35:00,69.3,56.2,30.09,East,80,10.4,10.4,63,0.00,CLR,SCT,0.00,WeatherDisplay:10.37,2013-05-01 16:35:00,
2013-05-01 12:36:00,69.3,56.6,30.09,East,97,11.5,11.5,64,0.00,CLR,SCT,0.00,WeatherDisplay:10.37,2013-05-01 16:36:00,
2013-05-01 12:38:00,69.3,56.2,30.09,ESE,102,9.2,9.2,63,0.00,CLR,SCT,0.00,WeatherDisplay:10.37,2013-05-01 16:38:00,
2013-05-01 12:40:00,69.3,56.2,30.09,East,86,7.0,7.4,63,0.00,CLR,SCT,0.00,WeatherDisplay:10.37,2013-05-01 16:40:00,
2013-05-01 12:41:00,69.3,56.2,30.09,East,90,10.4,10.4,63,0.00,CLR,SCT,0.00,WeatherDisplay:10.37,2013-05-01 16:41:00,
2013-05-01 12:43:00,69.4,56.7,30.09,East,88,12.7,12.7,64,0.00,CLR,SCT,0.00,WeatherDisplay:10.37,2013-05-01 16:43:00,
2013-05-01 12:46:00,69.6,56.9,30.09,East,80,10.4,10.4,64,0.00,CLR,SCT,0.00,WeatherDisplay:10.37,2013-05-01 16:46:00,
2013-05-01 12:47:00,69.6,56.0,30.08,ENE,77,10.4,10.4,62,0.00,CLR,SCT,0.00,WeatherDisplay:10.37,2013-05-01 16:47:00,
2013-05-01 12:49:00,69.6,56.4,30.08,ENE,75,11.5,11.5,63,0.00,CLR,SCT,0.00,WeatherDisplay:10.37,2013-05-01 16:49:00,
2013-05-01 12:51:00,69.6,56.4,30.08,East,92,11.5,11.5,63,0.00,CLR,SCT,0.00,WeatherDisplay:10.37,2013-05-01 16:51:00,
2013-05-01 12:53:00,69.8,56.2,30.08,ENE,65,13.8,13.8,62,0.00,CLR,SCT,0.00,WeatherDisplay:10.37,2013-05-01 16:53:00,
2013-05-01 12:54:00,69.8,56.6,30.08,NE,49,11.5,11.5,63,0.00,CLR,SCT,0.00,WeatherDisplay:10.37,2013-05-01 16:54:00,
2013-05-01 12:55:00,69.8,56.6,30.08,ENE,59,12.0,12.0,63,0.00,CLR,SCT,0.00,WeatherDisplay:10.37,2013-05-01 16:55:00,
2013-05-01 12:56:00,69.8,56.2,30.08,ENE,61,11.5,11.5,62,0.00,CLR,SCT,0.00,WeatherDisplay:10.37,2013-05-01 16:56:00,
2013-05-01 12:59:00,69.8,56.2,30.08,ENE,69,12.7,12.7,62,0.00,CLR,SCT,0.00,WeatherDisplay:10.37,2013-05-01 16:59:00,
2013-05-01 13:00:00,69.8,56.2,30.08,ENE,58,11.5,11.5,62,0.00,CLR,SCT,0.00,WeatherDisplay:10.37,2013-05-01 17:00:00,
2013-05-01 13:02:00,69.8,56.2,30.08,ENE,69,17.3,17.3,62,0.00,CLR,SCT,0.00,WeatherDisplay:10.37,2013-05-01 17:02:00,
2013-05-01 13:05:00,69.8,56.2,30.08,ENE,76,13.8,13.8,62,0.00,CLR,SCT,0.00,WeatherDisplay:10.37,2013-05-01 17:05:00,
2013-05-01 13:06:00,69.8,56.2,30.08,ENE,77,13.8,13.8,62,0.00,CLR,SCT,0.00,WeatherDisplay:10.37,2013-05-01 17:06:00,
2013-05-01 13:08:00,69.8,56.2,30.08,ENE,61,12.7,12.7,62,0.00,CLR,SCT,0.00,WeatherDisplay:10.37,2013-05-01 17:08:00,
2013-05-01 13:11:00,69.6,56.0,30.08,ENE,65,11.5,11.5,62,0.00,CLR,SCT,0.00,WeatherDisplay:10.37,2013-05-01 17:11:00,
2013-05-01 13:12:00,69.6,56.4,30.08,NE,44,12.0,12.0,63,0.00,CLR,SCT,0.00,WeatherDisplay:10.37,2013-05-01 17:12:00,
2013-05-01 13:13:00,69.8,56.2,30.08,ENE,62,13.8,13.8,62,0.00,CLR,SCT,0.00,WeatherDisplay:10.37,2013-05-01 17:13:00,
2013-05-01 13:14:00,69.8,56.2,30.07,East,83,13.8,13.8,62,0.00,CLR,SCT,0.00,WeatherDisplay:10.37,2013-05-01 17:14:00,
2013-05-01 13:15:00,69.8,55.7,30.07,East,85,15.0,15.0,61,0.00,CLR,SCT,0.00,WeatherDisplay:10.37,2013-05-01 17:15:00,
2013-05-01 13:17:00,69.8,56.6,30.07,ENE,65,10.0,10.0,63,0.00,CLR,SCT,0.00,WeatherDisplay:10.37,2013-05-01 17:17:00,
2013-05-01 13:19:00,69.8,56.2,30.07,ENE,70,11.5,11.5,62,0.00,CLR,SCT,0.00,WeatherDisplay:10.37,2013-05-01 17:19:00,
2013-05-01 13:20:00,69.8,56.2,30.07,East,82,9.2,9.2,62,0.00,CLR,SCT,0.00,WeatherDisplay:10.37,2013-05-01 17:20:00,
2013-05-01 13:22:00,69.9,56.7,30.07,ENE,69,13.0,13.0,63,0.00,CLR,SCT,0.00,WeatherDisplay:10.37,2013-05-01 17:22:00,
2013-05-01 13:23:00,69.9,56.3,30.07,ENE,76,12.7,12.7,62,0.00,CLR,SCT,0.00,WeatherDisplay:10.37,2013-05-01 17:23:00,
2013-05-01 13:25:00,69.9,56.3,30.07,ENE,63,12.0,12.0,62,0.00,CLR,SCT,0.00,WeatherDisplay:10.37,2013-05-01 17:25:00,
2013-05-01 13:26:00,69.9,55.8,30.07,ENE,63,12.7,12.7,61,0.00,CLR,SCT,0.00,WeatherDisplay:10.37,2013-05-01 17:26:00,
2013-05-01 13:28:00,70.1,56.5,30.07,ENE,63,12.7,12.7,62,0.00,CLR,SCT,0.00,WeatherDisplay:10.37,2013-05-01 17:28:00,
2013-05-01 13:30:00,70.1,56.5,30.07,East,88,11.0,11.0,62,0.00,CLR,SCT,0.00,WeatherDisplay:10.37,2013-05-01 17:30:00,
2013-05-01 13:31:00,70.1,56.0,30.07,East,88,11.5,11.5,61,0.00,CLR,SCT,0.00,WeatherDisplay:10.37,2013-05-01 17:31:00,
2013-05-01 13:32:00,70.1,56.0,30.07,East,88,11.5,11.5,61,0.00,CLR,SCT,0.00,WeatherDisplay:10.37,2013-05-01 17:32:00,
2013-05-01 13:33:00,70.1,56.0,30.07,East,85,11.5,11.5,61,0.00,CLR,SCT,0.00,WeatherDisplay:10.37,2013-05-01 17:33:00,
2013-05-01 13:36:00,69.9,55.8,30.07,ENE,69,10.4,10.4,61,0.00,CLR,SCT,0.00,WeatherDisplay:10.37,2013-05-01 17:36:00,
2013-05-01 13:37:00,69.9,55.8,30.07,East,90,12.0,12.0,61,0.00,CLR,SCT,0.00,WeatherDisplay:10.37,2013-05-01 17:37:00,
2013-05-01 13:38:00,70.1,56.5,30.07,ENE,70,11.5,11.5,62,0.00,CLR,SCT,0.00,WeatherDisplay:10.37,2013-05-01 17:38:00,
2013-05-01 13:43:00,70.3,56.2,30.07,East,80,11.5,11.5,61,0.00,CLR,SCT,0.00,WeatherDisplay:10.37,2013-05-01 17:43:00,
2013-05-01 13:44:00,70.4,56.8,30.07,NE,51,11.0,11.0,62,0.00,CLR,SCT,0.00,WeatherDisplay:10.37,2013-05-01 17:44:00,
2013-05-01 13:45:00,70.4,56.3,30.07,ENE,61,11.5,11.5,61,0.00,CLR,SCT,0.00,WeatherDisplay:10.37,2013-05-01 17:45:00,
2013-05-01 13:47:00,70.4,55.8,30.07,ENE,65,16.1,16.1,60,0.00,CLR,SCT,0.00,WeatherDisplay:10.37,2013-05-01 17:47:00,
2013-05-01 13:48:00,70.4,55.8,30.07,ENE,71,13.8,13.8,60,0.00,CLR,SCT,0.00,WeatherDisplay:10.37,2013-05-01 17:48:00,
2013-05-01 13:51:00,70.6,56.5,30.06,East,82,9.2,9.2,61,0.00,CLR,SCT,0.00,WeatherDisplay:10.37,2013-05-01 17:51:00,
2013-05-01 13:52:00,70.6,56.0,30.06,East,84,9.2,9.2,60,0.00,CLR,SCT,0.00,WeatherDisplay:10.37,2013-05-01 17:52:00,
2013-05-01 13:56:00,70.8,57.1,30.06,East,80,11.0,11.0,62,0.00,CLR,SCT,0.00,WeatherDisplay:10.37,2013-05-01 17:56:00,
2013-05-01 13:57:00,70.9,56.8,30.06,ENE,73,15.0,15.0,61,0.00,CLR,SCT,0.00,WeatherDisplay:10.37,2013-05-01 17:57:00,
2013-05-01 13:58:00,70.9,55.9,30.06,East,82,11.5,11.5,59,0.00,CLR,SCT,0.00,WeatherDisplay:10.37,2013-05-01 17:58:00,
2013-05-01 14:00:00,71.1,56.5,30.06,East,98,10.4,10.4,60,0.00,CLR,SCT,0.00,WeatherDisplay:10.37,2013-05-01 18:00:00,
2013-05-01 14:02:00,71.1,56.0,30.06,ESE,103,10.4,10.4,59,0.00,CLR,SCT,0.00,WeatherDisplay:10.37,2013-05-01 18:02:00,
2013-05-01 14:03:00,71.1,56.5,30.06,ESE,119,6.0,6.0,60,0.00,CLR,SCT,0.00,WeatherDisplay:10.37,2013-05-01 18:03:00,
2013-05-01 14:05:00,70.9,55.9,30.07,East,97,12.7,12.7,59,0.00,,SCT,0.00,WeatherDisplay:10.37,2013-05-01 18:05:00,
2013-05-01 14:06:00,70.9,56.3,30.07,East,98,8.1,8.1,60,0.00,,SCT,0.00,WeatherDisplay:10.37,2013-05-01 18:06:00,
2013-05-01 14:08:00,70.9,56.3,30.07,East,90,7.0,7.0,60,0.00,,SCT,0.00,WeatherDisplay:10.37,2013-05-01 18:08:00,
2013-05-01 14:11:00,70.8,56.2,30.07,East,86,6.9,6.9,60,0.00,,SCT,0.00,WeatherDisplay:10.37,2013-05-01 18:11:00,
2013-05-01 14:13:00,70.8,56.2,30.07,ENE,65,10.0,10.0,60,0.00,,SCT,0.00,WeatherDisplay:10.37,2013-05-01 18:13:00,
2013-05-01 14:14:00,70.8,56.2,30.07,ENE,74,11.5,11.5,60,0.00,,SCT,0.00,WeatherDisplay:10.37,2013-05-01 18:14:00,
2013-05-01 14:16:00,70.8,55.8,30.07,ENE,63,10.4,10.4,59,0.00,,SCT,0.00,WeatherDisplay:10.37,2013-05-01 18:16:00,
2013-05-01 14:17:00,70.8,55.8,30.07,ENE,71,9.2,9.2,59,0.00,,SCT,0.00,WeatherDisplay:10.37,2013-05-01 18:17:00,
2013-05-01 14:18:00,70.8,55.8,30.07,ENE,71,8.1,8.1,59,0.00,,SCT,0.00,WeatherDisplay:10.37,2013-05-01 18:18:00,
2013-05-01 14:19:00,70.8,55.8,30.07,ENE,59,9.0,9.0,59,0.00,,SCT,0.00,WeatherDisplay:10.37,2013-05-01 18:19:00,
2013-05-01 14:21:00,70.9,56.3,30.07,ENE,64,6.9,6.9,60,0.00,,SCT,0.00,WeatherDisplay:10.37,2013-05-01 18:21:00,
2013-05-01 14:26:00,71.3,56.2,30.07,ENE,66,11.5,11.5,59,0.00,,SCT,0.00,WeatherDisplay:10.37,2013-05-01 18:26:00,
2013-05-01 14:27:00,71.3,56.2,30.07,NE,55,11.5,11.5,59,0.00,,SCT,0.00,WeatherDisplay:10.37,2013-05-01 18:27:00,
2013-05-01 14:28:00,71.3,56.7,30.07,ENE,75,11.5,11.5,60,0.00,,SCT,0.00,WeatherDisplay:10.37,2013-05-01 18:28:00,
2013-05-01 14:30:00,71.5,56.4,30.07,ENE,67,10.4,10.4,59,0.00,,SCT,0.00,WeatherDisplay:10.37,2013-05-01 18:30:00,
2013-05-01 14:31:00,71.5,56.9,30.07,ENE,57,11.5,11.5,60,0.00,,SCT,0.00,WeatherDisplay:10.37,2013-05-01 18:31:00,
2013-05-01 14:32:00,71.5,56.4,30.07,ENE,67,11.5,11.5,59,0.00,,SCT,0.00,WeatherDisplay:10.37,2013-05-01 18:32:00,
2013-05-01 14:33:00,71.5,56.4,30.07,ENE,68,10.4,10.4,59,0.00,,SCT,0.00,WeatherDisplay:10.37,2013-05-01 18:33:00,
2013-05-01 14:36:00,71.6,56.5,30.07,ENE,77,10.4,10.4,59,0.00,,SCT,0.00,WeatherDisplay:10.37,2013-05-01 18:36:00,
2013-05-01 14:38:00,71.8,56.7,30.07,ENE,65,10.4,10.4,59,0.00,,SCT,0.00,WeatherDisplay:10.37,2013-05-01 18:38:00,
2013-05-01 14:39:00,71.8,56.7,30.07,ENE,65,10.4,10.4,59,0.00,,SCT,0.00,WeatherDisplay:10.37,2013-05-01 18:39:00,
2013-05-01 14:40:00,71.8,56.7,30.07,ENE,62,10.0,10.0,59,0.00,,SCT,0.00,WeatherDisplay:10.37,2013-05-01 18:40:00,
2013-05-01 14:44:00,71.8,56.2,30.07,NE,39,9.2,9.2,58,0.00,,SCT,0.00,WeatherDisplay:10.37,2013-05-01 18:44:00,
2013-05-01 14:46:00,71.8,56.7,30.07,NE,53,10.0,10.0,59,0.00,,SCT,0.00,WeatherDisplay:10.37,2013-05-01 18:46:00,
2013-05-01 14:48:00,71.8,56.7,30.07,ENE,62,11.5,11.5,59,0.00,,SCT,0.00,WeatherDisplay:10.37,2013-05-01 18:48:00,
2013-05-01 14:51:00,72.0,56.4,30.07,ENE,60,10.4,10.4,58,0.00,,SCT,0.00,WeatherDisplay:10.37,2013-05-01 18:51:00,
2013-05-01 14:52:00,72.0,56.4,30.07,ENE,61,9.2,9.2,58,0.00,,SCT,0.00,WeatherDisplay:10.37,2013-05-01 18:52:00,
2013-05-01 14:54:00,72.1,56.5,30.07,ENE,61,14.0,14.0,58,0.00,,SCT,0.00,WeatherDisplay:10.37,2013-05-01 18:54:00,
2013-05-01 14:57:00,72.1,56.5,30.07,East,87,12.7,12.7,58,0.00,,SCT,0.00,WeatherDisplay:10.37,2013-05-01 18:57:00,
2013-05-01 14:59:00,72.1,56.0,30.07,East,85,11.5,11.5,57,0.00,,SCT,0.00,WeatherDisplay:10.37,2013-05-01 18:59:00,
2013-05-01 15:00:00,72.1,56.0,30.07,East,89,10.4,10.4,57,0.00,,SCT,0.00,WeatherDisplay:10.37,2013-05-01 19:00:00,
2013-05-01 15:03:00,72.1,56.0,30.07,ENE,63,11.5,11.5,57,0.00,,SCT,0.00,WeatherDisplay:10.37,2013-05-01 19:03:00,
2013-05-01 15:04:00,72.3,56.2,30.07,ENE,76,10.4,10.4,57,0.00,,SCT,0.00,WeatherDisplay:10.37,2013-05-01 19:04:00,
2013-05-01 15:06:00,72.3,56.2,30.07,East,101,11.5,11.5,57,0.00,CLR,SCT,0.00,WeatherDisplay:10.37,2013-05-01 19:06:00,
2013-05-01 15:08:00,72.5,56.9,30.07,East,86,6.9,6.9,58,0.00,CLR,SCT,0.00,WeatherDisplay:10.37,2013-05-01 19:08:00,
2013-05-01 15:09:00,72.5,56.9,30.07,East,80,9.0,9.0,58,0.00,CLR,SCT,0.00,WeatherDisplay:10.37,2013-05-01 19:09:00,
2013-05-01 15:11:00,72.5,56.4,30.07,ENE,67,11.5,11.5,57,0.00,CLR,SCT,0.00,WeatherDisplay:10.37,2013-05-01 19:11:00,
2013-05-01 15:12:00,72.5,56.4,30.07,ENE,60,11.5,11.5,57,0.00,CLR,SCT,0.00,WeatherDisplay:10.37,2013-05-01 19:12:00,
2013-05-01 15:14:00,72.5,55.9,30.07,ENE,71,12.7,12.7,56,0.00,CLR,SCT,0.00,WeatherDisplay:10.37,2013-05-01 19:14:00,
2013-05-01 15:15:00,72.5,56.4,30.07,East,95,12.7,12.7,57,0.00,CLR,SCT,0.00,WeatherDisplay:10.37,2013-05-01 19:15:00,
2013-05-01 15:17:00,72.5,55.9,30.07,ESE,107,9.2,9.2,56,0.00,CLR,SCT,0.00,WeatherDisplay:10.37,2013-05-01 19:17:00,
2013-05-01 15:19:00,72.5,55.9,30.07,East,93,11.0,11.0,56,0.00,CLR,SCT,0.00,WeatherDisplay:10.37,2013-05-01 19:19:00,
2013-05-01 15:20:00,72.5,55.9,30.07,East,97,11.5,11.5,56,0.00,CLR,SCT,0.00,WeatherDisplay:10.37,2013-05-01 19:20:00,
2013-05-01 15:24:00,72.3,54.7,30.07,ESE,102,11.5,11.5,54,0.00,CLR,SCT,0.00,WeatherDisplay:10.37,2013-05-01 19:24:00,
2013-05-01 15:25:00,72.3,55.2,30.07,East,82,11.5,11.5,55,0.00,CLR,SCT,0.00,WeatherDisplay:10.37,2013-05-01 19:25:00,
2013-05-01 15:26:00,72.3,54.7,30.07,East,82,13.8,13.8,54,0.00,CLR,SCT,0.00,WeatherDisplay:10.37,2013-05-01 19:26:00,
2013-05-01 15:31:00,72.3,55.2,30.07,East,97,12.7,12.7,55,0.00,CLR,SCT,0.00,WeatherDisplay:10.37,2013-05-01 19:31:00,
2013-05-01 15:32:00,72.3,55.7,30.07,East,94,12.7,12.7,56,0.00,CLR,SCT,0.00,WeatherDisplay:10.37,2013-05-01 19:32:00,
2013-05-01 15:33:00,72.5,55.4,30.07,East,92,10.4,10.4,55,0.00,CLR,SCT,0.00,WeatherDisplay:10.37,2013-05-01 19:33:00,
2013-05-01 15:35:00,72.3,55.2,30.07,East,91,12.7,12.7,55,0.00,CLR,SCT,0.00,WeatherDisplay:10.37,2013-05-01 19:35:00,
2013-05-01 15:37:00,72.3,55.2,30.07,ENE,78,11.5,11.5,55,0.00,CLR,SCT,0.00,WeatherDisplay:10.37,2013-05-01 19:37:00,
2013-05-01 15:39:00,72.3,55.7,30.07,ENE,77,11.0,11.0,56,0.00,CLR,SCT,0.00,WeatherDisplay:10.37,2013-05-01 19:39:00,
2013-05-01 15:40:00,72.3,55.2,30.07,ESE,105,11.5,11.5,55,0.00,CLR,SCT,0.00,WeatherDisplay:10.37,2013-05-01 19:40:00,
2013-05-01 15:42:00,72.3,54.7,30.07,East,97,10.4,10.4,54,0.00,CLR,SCT,0.00,WeatherDisplay:10.37,2013-05-01 19:42:00,
2013-05-01 15:44:00,72.3,55.2,30.07,ESE,107,10.4,10.4,55,0.00,CLR,SCT,0.00,WeatherDisplay:10.37,2013-05-01 19:44:00,
2013-05-01 15:45:00,72.3,54.7,30.07,East,96,10.4,10.4,54,0.00,CLR,SCT,0.00,WeatherDisplay:10.37,2013-05-01 19:45:00,
2013-05-01 15:48:00,72.3,54.7,30.07,ESE,111,10.4,10.4,54,0.00,CLR,SCT,0.00,WeatherDisplay:10.37,2013-05-01 19:48:00,
2013-05-01 15:50:00,72.3,54.7,30.07,East,101,11.5,11.5,54,0.00,CLR,SCT,0.00,WeatherDisplay:10.37,2013-05-01 19:50:00,
2013-05-01 15:51:00,72.3,54.2,30.07,East,92,11.5,11.5,53,0.00,CLR,SCT,0.00,WeatherDisplay:10.37,2013-05-01 19:51:00,
2013-05-01 15:56:00,72.1,54.5,30.07,ESE,108,10.4,10.4,54,0.00,CLR,SCT,0.00,WeatherDisplay:10.37,2013-05-01 19:56:00,
2013-05-01 15:57:00,72.1,54.5,30.07,East,94,11.5,11.5,54,0.00,CLR,SCT,0.00,WeatherDisplay:10.37,2013-05-01 19:57:00,
2013-05-01 16:00:00,72.0,54.4,30.07,East,92,11.5,11.5,54,0.00,CLR,SCT,0.00,WeatherDisplay:10.37,2013-05-01 20:00:00,
2013-05-01 16:01:00,72.0,54.9,30.07,East,94,12.0,12.0,55,0.00,CLR,SCT,0.00,WeatherDisplay:10.37,2013-05-01 20:01:00,
2013-05-01 16:02:00,72.0,54.4,30.07,East,98,11.5,11.5,54,0.00,CLR,SCT,0.00,WeatherDisplay:10.37,2013-05-01 20:02:00,
2013-05-01 16:04:00,71.8,54.3,30.07,East,84,11.5,11.5,54,0.00,CLR,SCT,0.00,WeatherDisplay:10.37,2013-05-01 20:04:00,
2013-05-01 16:05:00,71.8,54.3,30.07,East,101,10.4,10.4,54,0.00,CLR,SCT,0.00,WeatherDisplay:10.37,2013-05-01 20:05:00,
2013-05-01 16:06:00,71.8,54.8,30.07,East,98,11.5,11.5,55,0.00,CLR,SCT,0.00,WeatherDisplay:10.37,2013-05-01 20:06:00,
2013-05-01 16:07:00,71.8,54.3,30.07,East,85,11.5,11.5,54,0.00,CLR,SCT,0.00,WeatherDisplay:10.37,2013-05-01 20:07:00,
2013-05-01 16:10:00,71.8,54.3,30.07,East,89,9.2,9.2,54,0.00,CLR,SCT,0.00,WeatherDisplay:10.37,2013-05-01 20:10:00,
2013-05-01 16:11:00,71.8,54.3,30.07,East,94,11.5,11.5,54,0.00,CLR,SCT,0.00,WeatherDisplay:10.37,2013-05-01 20:11:00,
2013-05-01 16:12:00,71.8,54.3,30.07,ESE,115,11.5,11.5,54,0.00,CLR,SCT,0.00,WeatherDisplay:10.37,2013-05-01 20:12:00,
2013-05-01 16:16:00,71.8,54.3,30.07,SE,127,13.8,13.8,54,0.00,CLR,SCT,0.00,WeatherDisplay:10.37,2013-05-01 20:16:00,
2013-05-01 16:17:00,71.8,53.7,30.07,ESE,112,11.5,11.5,53,0.00,CLR,SCT,0.00,WeatherDisplay:10.37,2013-05-01 20:17:00,
2013-05-01 16:18:00,71.6,53.0,30.07,East,96,15.0,15.0,52,0.00,CLR,SCT,0.00,WeatherDisplay:10.37,2013-05-01 20:18:00,
2013-05-01 16:19:00,71.6,54.1,30.07,East,84,10.4,10.4,54,0.00,CLR,SCT,0.00,WeatherDisplay:10.37,2013-05-01 20:19:00,
2013-05-01 16:20:00,71.6,53.6,30.07,ENE,75,13.0,13.0,53,0.00,CLR,SCT,0.00,WeatherDisplay:10.37,2013-05-01 20:20:00,
2013-05-01 16:22:00,71.6,53.0,30.07,East,89,15.0,15.0,52,0.00,CLR,SCT,0.00,WeatherDisplay:10.37,2013-05-01 20:22:00,
2013-05-01 16:25:00,71.5,54.5,30.07,ENE,69,13.0,13.0,55,0.00,CLR,SCT,0.00,WeatherDisplay:10.37,2013-05-01 20:25:00,
2013-05-01 16:27:00,71.5,54.0,30.07,SE,130,13.8,13.8,54,0.00,CLR,SCT,0.00,WeatherDisplay:10.37,2013-05-01 20:27:00,
2013-05-01 16:29:00,71.5,54.0,30.07,East,98,11.5,11.5,54,0.00,CLR,SCT,0.00,WeatherDisplay:10.37,2013-05-01 20:29:00,
2013-05-01 16:30:00,71.3,53.3,30.07,East,98,9.2,9.2,53,0.00,CLR,SCT,0.00,WeatherDisplay:10.37,2013-05-01 20:30:00,
2013-05-01 16:33:00,71.3,53.8,30.07,East,80,11.0,11.0,54,0.00,CLR,SCT,0.00,WeatherDisplay:10.37,2013-05-01 20:33:00,
2013-05-01 16:34:00,71.3,53.8,30.07,East,81,11.5,11.5,54,0.00,CLR,SCT,0.00,WeatherDisplay:10.37,2013-05-01 20:34:00,
2013-05-01 16:35:00,71.3,53.8,30.07,ESE,103,11.5,11.5,54,0.00,CLR,SCT,0.00,WeatherDisplay:10.37,2013-05-01 20:35:00,
2013-05-01 16:39:00,71.3,54.3,30.07,East,83,11.5,11.5,55,0.00,CLR,SCT,0.00,WeatherDisplay:10.37,2013-05-01 20:39:00,
2013-05-01 16:40:00,71.3,53.8,30.07,East,90,11.5,11.5,54,0.00,CLR,SCT,0.00,WeatherDisplay:10.37,2013-05-01 20:40:00,
2013-05-01 16:43:00,71.3,53.8,30.07,East,92,12.0,12.0,54,0.00,CLR,SCT,0.00,WeatherDisplay:10.37,2013-05-01 20:43:00,
2013-05-01 16:45:00,71.1,53.6,30.07,East,93,11.5,11.5,54,0.00,CLR,SCT,0.00,WeatherDisplay:10.37,2013-05-01 20:45:00,
2013-05-01 16:47:00,71.1,53.6,30.07,East,82,11.5,11.5,54,0.00,CLR,SCT,0.00,WeatherDisplay:10.37,2013-05-01 20:47:00,
2013-05-01 16:48:00,71.1,53.6,30.07,East,81,11.5,11.5,54,0.00,CLR,SCT,0.00,WeatherDisplay:10.37,2013-05-01 20:48:00,
2013-05-01 16:51:00,70.9,53.9,30.07,East,86,11.5,11.5,55,0.00,CLR,SCT,0.00,WeatherDisplay:10.37,2013-05-01 20:51:00,
2013-05-01 16:53:00,70.9,53.9,30.07,East,81,11.5,11.5,55,0.00,CLR,SCT,0.00,WeatherDisplay:10.37,2013-05-01 20:53:00,
2013-05-01 16:54:00,70.9,52.9,30.06,East,79,12.7,12.7,53,0.00,CLR,SCT,0.00,WeatherDisplay:10.37,2013-05-01 20:54:00,
2013-05-01 16:56:00,70.9,53.4,30.06,East,86,9.2,9.2,54,0.00,CLR,SCT,0.00,WeatherDisplay:10.37,2013-05-01 20:56:00,
2013-05-01 16:58:00,70.8,53.8,30.06,ENE,78,12.0,12.0,55,0.00,CLR,SCT,0.00,WeatherDisplay:10.37,2013-05-01 20:58:00,
2013-05-01 17:00:00,70.8,53.8,30.07,East,83,12.7,12.7,55,0.00,CLR,SCT,0.00,WeatherDisplay:10.37,2013-05-01 21:00:00,
2013-05-01 17:01:00,70.8,53.8,30.07,East,88,14.0,14.0,55,0.00,CLR,SCT,0.00,WeatherDisplay:10.37,2013-05-01 21:01:00,
2013-05-01 17:02:00,70.8,53.3,30.07,East,94,13.8,13.8,54,0.00,CLR,SCT,0.00,WeatherDisplay:10.37,2013-05-01 21:02:00,
2013-05-01 17:03:00,70.6,53.1,30.07,East,94,13.8,13.8,54,0.00,CLR,SCT,0.00,WeatherDisplay:10.37,2013-05-01 21:03:00,
2013-05-01 17:05:00,70.4,53.0,30.07,East,101,12.7,12.7,54,0.00,CLR,SCT,0.00,WeatherDisplay:10.37,2013-05-01 21:05:00,
2013-05-01 17:06:00,70.4,53.0,30.07,East,96,12.7,12.7,54,0.00,CLR,SCT,0.00,WeatherDisplay:10.37,2013-05-01 21:06:00,
2013-05-01 17:07:00,70.3,52.4,30.07,East,90,12.7,12.7,53,0.00,CLR,SCT,0.00,WeatherDisplay:10.37,2013-05-01 21:07:00,
2013-05-01 17:08:00,70.3,52.4,30.07,East,94,11.5,11.5,53,0.00,CLR,SCT,0.00,WeatherDisplay:10.37,2013-05-01 21:08:00,
2013-05-01 17:10:00,70.1,52.2,30.07,East,97,12.7,12.7,53,0.00,CLR,SCT,0.00,WeatherDisplay:10.37,2013-05-01 21:10:00,
2013-05-01 17:12:00,69.9,52.0,30.07,East,101,15.0,15.0,53,0.00,CLR,SCT,0.00,WeatherDisplay:10.37,2013-05-01 21:12:00,
2013-05-01 17:13:00,69.9,52.0,30.07,East,86,13.8,13.8,53,0.00,CLR,SCT,0.00,WeatherDisplay:10.37,2013-05-01 21:13:00,
2013-05-01 17:14:00,69.9,52.5,30.07,SSE,159,12.7,12.7,54,0.00,CLR,SCT,0.00,WeatherDisplay:10.37,2013-05-01 21:14:00,
2013-05-01 17:15:00,69.9,52.5,30.07,SE,131,15.0,15.0,54,0.00,CLR,SCT,0.00,WeatherDisplay:10.37,2013-05-01 21:15:00,
2013-05-01 17:17:00,69.8,51.4,30.07,SE,132,18.4,18.4,52,0.00,CLR,SCT,0.00,WeatherDisplay:10.37,2013-05-01 21:17:00,
2013-05-01 17:18:00,69.8,51.4,30.07,East,96,11.5,11.5,52,0.00,CLR,SCT,0.00,WeatherDisplay:10.37,2013-05-01 21:18:00,
2013-05-01 17:20:00,69.8,51.9,30.07,East,98,11.5,11.5,53,0.00,CLR,SCT,0.00,WeatherDisplay:10.37,2013-05-01 21:20:00,
2013-05-01 17:23:00,69.6,51.7,30.07,East,94,11.5,11.5,53,0.00,CLR,SCT,0.00,WeatherDisplay:10.37,2013-05-01 21:23:00,
2013-05-01 17:25:00,69.6,51.2,30.07,East,98,10.4,10.4,52,0.00,CLR,SCT,0.00,WeatherDisplay:10.37,2013-05-01 21:25:00,
2013-05-01 17:26:00,69.4,51.5,30.07,East,97,11.5,11.5,53,0.00,CLR,SCT,0.00,WeatherDisplay:10.37,2013-05-01 21:26:00,
2013-05-01 17:28:00,69.4,52.0,30.07,ESE,104,9.2,9.2,54,0.00,CLR,SCT,0.00,WeatherDisplay:10.37,2013-05-01 21:28:00,
2013-05-01 17:33:00,69.4,52.0,30.07,ESE,102,6.0,6.0,54,0.00,CLR,SCT,0.00,WeatherDisplay:10.37,2013-05-01 21:33:00,
2013-05-01 17:34:00,69.4,52.5,30.07,ESE,102,5.8,5.8,55,0.00,CLR,SCT,0.00,WeatherDisplay:10.37,2013-05-01 21:34:00,
2013-05-01 17:36:00,69.4,52.5,30.07,East,97,8.0,8.0,55,0.00,CLR,SCT,0.00,WeatherDisplay:10.37,2013-05-01 21:36:00,
2013-05-01 17:38:00,69.4,52.0,30.07,East,96,10.4,10.4,54,0.00,CLR,SCT,0.00,WeatherDisplay:10.37,2013-05-01 21:38:00,
2013-05-01 17:39:00,69.3,51.9,30.07,East,86,11.0,11.0,54,0.00,CLR,SCT,0.00,WeatherDisplay:10.37,2013-05-01 21:39:00,
2013-05-01 17:41:00,69.3,51.9,30.07,East,93,11.5,11.5,54,0.00,CLR,SCT,0.00,WeatherDisplay:10.37,2013-05-01 21:41:00,
2013-05-01 17:43:00,69.3,51.4,30.07,East,100,12.7,12.7,53,0.00,CLR,SCT,0.00,WeatherDisplay:10.37,2013-05-01 21:43:00,
2013-05-01 17:44:00,69.1,51.2,30.07,ESE,103,9.2,9.5,53,0.00,CLR,SCT,0.00,WeatherDisplay:10.37,2013-05-01 21:44:00,
2013-05-01 17:45:00,69.1,51.2,30.07,East,98,15.0,15.0,53,0.00,CLR,SCT,0.00,WeatherDisplay:10.37,2013-05-01 21:45:00,
2013-05-01 17:47:00,69.1,51.2,30.07,ESE,102,11.5,11.5,53,0.00,CLR,SCT,0.00,WeatherDisplay:10.37,2013-05-01 21:47:00,
2013-05-01 17:49:00,68.9,51.1,30.07,SE,129,11.5,11.5,53,0.00,CLR,SCT,0.00,WeatherDisplay:10.37,2013-05-01 21:49:00,
2013-05-01 17:50:00,68.9,51.1,30.07,East,98,10.4,10.4,53,0.00,CLR,SCT,0.00,WeatherDisplay:10.37,2013-05-01 21:50:00,
2013-05-01 17:53:00,68.8,51.0,30.08,ESE,112,10.4,10.4,53,0.00,CLR,SCT,0.00,WeatherDisplay:10.37,2013-05-01 21:53:00,
2013-05-01 17:54:00,68.8,51.0,30.08,East,98,12.7,12.7,53,0.00,CLR,SCT,0.00,WeatherDisplay:10.37,2013-05-01 21:54:00,
2013-05-01 17:55:00,68.6,50.8,30.08,East,101,11.5,11.5,53,0.00,CLR,SCT,0.00,WeatherDisplay:10.37,2013-05-01 21:55:00,
2013-05-01 17:57:00,68.6,51.3,30.08,East,95,9.0,9.0,54,0.00,CLR,SCT,0.00,WeatherDisplay:10.37,2013-05-01 21:57:00,
2013-05-01 17:59:00,68.4,50.6,30.08,ESE,105,11.5,11.5,53,0.00,CLR,SCT,0.00,WeatherDisplay:10.37,2013-05-01 21:59:00,
2013-05-01 18:00:00,68.4,51.1,30.08,East,95,11.5,11.5,54,0.00,CLR,SCT,0.00,WeatherDisplay:10.37,2013-05-01 22:00:00,
2013-05-01 18:01:00,68.4,51.1,30.08,East,95,9.2,9.2,54,0.00,CLR,SCT,0.00,WeatherDisplay:10.37,2013-05-01 22:01:00,
2013-05-01 18:02:00,68.4,51.1,30.08,East,93,9.2,9.2,54,0.00,CLR,SCT,0.00,WeatherDisplay:10.37,2013-05-01 22:02:00,
2013-05-01 18:05:00,68.3,51.0,30.08,ESE,105,9.2,9.2,54,0.00,CLR,SCT,0.00,WeatherDisplay:10.37,2013-05-01 22:05:00,
2013-05-01 18:06:00,68.3,51.0,30.08,East,97,12.7,12.7,54,0.00,CLR,SCT,0.00,WeatherDisplay:10.37,2013-05-01 22:06:00,
2013-05-01 18:07:00,68.3,51.0,30.08,ESE,115,10.4,10.4,54,0.00,CLR,SCT,0.00,WeatherDisplay:10.37,2013-05-01 22:07:00,
2013-05-01 18:09:00,68.1,50.8,30.08,East,98,9.2,9.2,54,0.00,CLR,SCT,0.00,WeatherDisplay:10.37,2013-05-01 22:09:00,
2013-05-01 18:11:00,68.1,50.8,30.08,SE,126,6.9,6.9,54,0.00,CLR,SCT,0.00,WeatherDisplay:10.37,2013-05-01 22:11:00,
2013-05-01 18:12:00,67.9,50.6,30.08,East,88,12.0,12.0,54,0.00,CLR,SCT,0.00,WeatherDisplay:10.37,2013-05-01 22:12:00,
2013-05-01 18:14:00,67.9,50.6,30.08,East,93,11.5,11.5,54,0.00,CLR,SCT,0.00,WeatherDisplay:10.37,2013-05-01 22:14:00,
2013-05-01 18:17:00,67.8,50.5,30.08,East,94,14.0,14.0,54,0.00,CLR,SCT,0.00,WeatherDisplay:10.37,2013-05-01 22:17:00,
2013-05-01 18:20:00,67.8,50.5,30.08,ESE,103,13.8,13.8,54,0.00,CLR,SCT,0.00,WeatherDisplay:10.37,2013-05-01 22:20:00,
2013-05-01 18:23:00,67.6,50.4,30.08,East,93,12.7,12.7,54,0.00,CLR,SCT,0.00,WeatherDisplay:10.37,2013-05-01 22:23:00,
2013-05-01 18:24:00,67.6,50.4,30.08,East,100,11.5,11.5,54,0.00,CLR,SCT,0.00,WeatherDisplay:10.37,2013-05-01 22:24:00,
2013-05-01 18:25:00,67.6,50.4,30.08,East,87,11.5,11.5,54,0.00,CLR,SCT,0.00,WeatherDisplay:10.37,2013-05-01 22:25:00,
2013-05-01 18:26:00,67.6,50.4,30.08,ESE,106,12.7,12.7,54,0.00,CLR,SCT,0.00,WeatherDisplay:10.37,2013-05-01 22:26:00,
2013-05-01 18:27:00,67.6,50.4,30.08,ESE,117,13.8,13.8,54,0.00,CLR,SCT,0.00,WeatherDisplay:10.37,2013-05-01 22:27:00,
2013-05-01 18:28:00,67.4,50.2,30.08,East,83,11.5,11.5,54,0.00,CLR,SCT,0.00,WeatherDisplay:10.37,2013-05-01 22:28:00,
2013-05-01 18:29:00,67.4,50.2,30.08,East,101,11.5,11.5,54,0.00,CLR,SCT,0.00,WeatherDisplay:10.37,2013-05-01 22:29:00,
2013-05-01 18:30:00,67.4,50.2,30.08,ESE,102,11.5,11.5,54,0.00,CLR,SCT,0.00,WeatherDisplay:10.37,2013-05-01 22:30:00,
2013-05-01 18:33:00,67.3,50.1,30.08,East,94,9.2,9.2,54,0.00,CLR,SCT,0.00,WeatherDisplay:10.37,2013-05-01 22:33:00,
2013-05-01 18:35:00,67.3,50.6,30.08,East,93,10.4,10.4,55,0.00,CLR,SCT,0.00,WeatherDisplay:10.37,2013-05-01 22:35:00,
2013-05-01 18:36:00,67.3,50.1,30.08,East,96,6.9,6.9,54,0.00,CLR,SCT,0.00,WeatherDisplay:10.37,2013-05-01 22:36:00,
2013-05-01 18:38:00,67.1,50.4,30.08,East,101,9.2,9.2,55,0.00,CLR,SCT,0.00,WeatherDisplay:10.37,2013-05-01 22:38:00,
2013-05-01 18:40:00,67.1,50.4,30.08,ESE,110,11.5,11.5,55,0.00,CLR,SCT,0.00,WeatherDisplay:10.37,2013-05-01 22:40:00,
2013-05-01 18:41:00,67.1,50.4,30.08,ESE,109,11.5,11.5,55,0.00,CLR,SCT,0.00,WeatherDisplay:10.37,2013-05-01 22:41:00,
2013-05-01 18:43:00,67.1,50.4,30.08,East,97,13.8,13.8,55,0.00,CLR,SCT,0.00,WeatherDisplay:10.37,2013-05-01 22:43:00,
2013-05-01 18:45:00,66.9,49.7,30.08,ESE,115,11.5,11.5,54,0.00,CLR,SCT,0.00,WeatherDisplay:10.37,2013-05-01 22:45:00,
2013-05-01 18:46:00,66.9,50.2,30.08,ESE,113,11.5,11.5,55,0.00,CLR,SCT,0.00,WeatherDisplay:10.37,2013-05-01 22:46:00,
2013-05-01 18:48:00,66.9,49.7,30.09,SE,138,6.9,6.9,54,0.00,CLR,SCT,0.00,WeatherDisplay:10.37,2013-05-01 22:48:00,
2013-05-01 18:50:00,66.9,50.2,30.09,SE,129,6.9,6.9,55,0.00,CLR,SCT,0.00,WeatherDisplay:10.37,2013-05-01 22:50:00,
2013-05-01 18:51:00,66.9,50.2,30.09,SE,129,9.2,9.2,55,0.00,CLR,SCT,0.00,WeatherDisplay:10.37,2013-05-01 22:51:00,
2013-05-01 18:53:00,66.9,49.7,30.08,ESE,114,9.2,9.2,54,0.00,CLR,SCT,0.00,WeatherDisplay:10.37,2013-05-01 22:53:00,
2013-05-01 18:56:00,66.9,50.2,30.08,ESE,113,3.5,4.2,55,0.00,CLR,SCT,0.00,WeatherDisplay:10.37,2013-05-01 22:56:00,
2013-05-01 18:58:00,66.9,50.2,30.08,East,94,6.9,6.9,55,0.00,CLR,SCT,0.00,WeatherDisplay:10.37,2013-05-01 22:58:00,
2013-05-01 18:59:00,66.9,50.2,30.08,East,94,6.9,6.9,55,0.00,CLR,SCT,0.00,WeatherDisplay:10.37,2013-05-01 22:59:00,
2013-05-01 19:03:00,66.8,49.6,30.08,East,95,8.1,8.1,54,0.00,CLR,SCT,0.00,WeatherDisplay:10.37,2013-05-01 23:03:00,
2013-05-01 19:05:00,66.8,49.6,30.08,ESE,106,10.4,10.4,54,0.00,CLR,SCT,0.00,WeatherDisplay:10.37,2013-05-01 23:05:00,
2013-05-01 19:06:00,66.8,50.1,30.08,ESE,107,5.8,5.8,55,0.00,CLR,SCT,0.00,WeatherDisplay:10.37,2013-05-01 23:06:00,
2013-05-01 19:08:00,66.8,49.6,30.08,East,99,6.9,6.9,54,0.00,CLR,SCT,0.00,WeatherDisplay:10.37,2013-05-01 23:08:00,
2013-05-01 19:09:00,66.8,49.6,30.08,East,99,5.8,5.8,54,0.00,CLR,SCT,0.00,WeatherDisplay:10.37,2013-05-01 23:09:00,
2013-05-01 19:11:00,66.8,50.1,30.08,East,99,4.6,4.6,55,0.00,CLR,SCT,0.00,WeatherDisplay:10.37,2013-05-01 23:11:00,
2013-05-01 19:14:00,66.6,49.4,30.08,ESE,117,9.2,9.2,54,0.00,CLR,SCT,0.00,WeatherDisplay:10.37,2013-05-01 23:14:00,
2013-05-01 19:15:00,66.6,49.9,30.08,ESE,104,5.0,5.0,55,0.00,CLR,SCT,0.00,WeatherDisplay:10.37,2013-05-01 23:15:00,
2013-05-01 19:18:00,66.6,49.9,30.08,ESE,108,6.0,6.0,55,0.00,CLR,SCT,0.00,WeatherDisplay:10.37,2013-05-01 23:18:00,
2013-05-01 19:21:00,66.6,49.9,30.08,ESE,108,9.2,9.2,55,0.00,CLR,SCT,0.00,WeatherDisplay:10.37,2013-05-01 23:21:00,
2013-05-01 19:22:00,66.6,49.9,30.08,ESE,107,11.5,11.5,55,0.00,CLR,SCT,0.00,WeatherDisplay:10.37,2013-05-01 23:22:00,
2013-05-01 19:23:00,66.6,49.9,30.08,ESE,117,6.9,6.9,55,0.00,CLR,SCT,0.00,WeatherDisplay:10.37,2013-05-01 23:23:00,
2013-05-01 19:28:00,66.6,49.4,30.08,ESE,104,11.5,11.5,54,0.00,CLR,SCT,0.00,WeatherDisplay:10.37,2013-05-01 23:28:00,
2013-05-01 19:29:00,66.6,49.9,30.08,ESE,121,6.9,6.9,55,0.00,CLR,SCT,0.00,WeatherDisplay:10.37,2013-05-01 23:29:00,
2013-05-01 19:30:00,66.6,49.9,30.08,East,101,12.0,12.0,55,0.00,CLR,SCT,0.00,WeatherDisplay:10.37,2013-05-01 23:30:00,
2013-05-01 19:35:00,66.4,49.7,30.08,ESE,113,3.5,3.6,55,0.00,CLR,SCT,0.00,WeatherDisplay:10.37,2013-05-01 23:35:00,
2013-05-01 19:38:00,66.3,49.6,30.08,ESE,107,9.2,9.2,55,0.00,CLR,SCT,0.00,WeatherDisplay:10.37,2013-05-01 23:38:00,
2013-05-01 19:39:00,66.3,49.6,30.08,ESE,107,10.4,10.4,55,0.00,CLR,SCT,0.00,WeatherDisplay:10.37,2013-05-01 23:39:00,
2013-05-01 19:40:00,66.3,50.1,30.08,ESE,111,5.8,5.9,56,0.00,CLR,SCT,0.00,WeatherDisplay:10.37,2013-05-01 23:40:00,
2013-05-01 19:41:00,66.3,50.1,30.08,ESE,111,9.2,9.2,56,0.00,CLR,SCT,0.00,WeatherDisplay:10.37,2013-05-01 23:41:00,
2013-05-01 19:43:00,66.1,49.9,30.08,ESE,110,5.8,5.8,56,0.00,CLR,SCT,0.00,WeatherDisplay:10.37,2013-05-01 23:43:00,
2013-05-01 19:45:00,66.0,49.8,30.08,ESE,109,10.4,10.4,56,0.00,CLR,SCT,0.00,WeatherDisplay:10.37,2013-05-01 23:45:00,
2013-05-01 19:47:00,66.0,49.4,30.08,ESE,121,11.5,11.5,55,0.00,CLR,SCT,0.00,WeatherDisplay:10.37,2013-05-01 23:47:00,
2013-05-01 19:50:00,66.0,49.8,30.09,ESE,111,5.0,5.0,56,0.00,CLR,SCT,0.00,WeatherDisplay:10.37,2013-05-01 23:50:00,
2013-05-01 19:51:00,66.0,50.3,30.09,ESE,111,4.6,4.6,57,0.00,CLR,SCT,0.00,WeatherDisplay:10.37,2013-05-01 23:51:00,
2013-05-01 19:54:00,65.6,50.0,30.09,ESE,108,4.0,4.0,57,0.00,CLR,SCT,0.00,WeatherDisplay:10.37,2013-05-01 23:54:00,
2013-05-01 19:55:00,65.6,50.4,30.09,ESE,108,3.5,3.7,58,0.00,CLR,SCT,0.00,WeatherDisplay:10.37,2013-05-01 23:55:00,
2013-05-01 19:56:00,65.5,50.3,30.09,ESE,108,4.6,4.6,58,0.00,CLR,SCT,0.00,WeatherDisplay:10.37,2013-05-01 23:56:00,
2013-05-01 19:59:00,65.2,50.0,30.08,East,97,8.1,8.1,58,0.00,CLR,SCT,0.00,WeatherDisplay:10.37,2013-05-01 23:59:00,
2013-05-01 20:01:00,64.8,49.7,30.09,East,94,9.0,9.0,58,0.00,CLR,SCT,0.00,WeatherDisplay:10.37,2013-05-02 00:01:00,
2013-05-01 20:02:00,64.7,50.0,30.09,East,93,9.2,9.2,59,0.00,CLR,SCT,0.00,WeatherDisplay:10.37,2013-05-02 00:02:00,
2013-05-01 20:05:00,64.5,49.8,30.08,East,95,7.0,7.0,59,0.00,CLR,SCT,0.00,WeatherDisplay:10.37,2013-05-02 00:05:00,
2013-05-01 20:06:00,64.3,49.7,30.08,East,93,10.0,10.0,59,0.00,CLR,SCT,0.00,WeatherDisplay:10.37,2013-05-02 00:06:00,
2013-05-01 20:08:00,64.3,49.7,30.08,East,96,11.5,11.5,59,0.00,CLR,SCT,0.00,WeatherDisplay:10.37,2013-05-02 00:08:00,
2013-05-01 20:11:00,64.3,49.7,30.08,East,94,11.5,11.5,59,0.00,CLR,SCT,0.00,WeatherDisplay:10.37,2013-05-02 00:11:00,
2013-05-01 20:13:00,64.3,49.7,30.08,ESE,116,11.5,11.5,59,0.00,CLR,SCT,0.00,WeatherDisplay:10.37,2013-05-02 00:13:00,
2013-05-01 20:14:00,64.3,50.1,30.08,ESE,115,10.4,10.4,60,0.00,CLR,SCT,0.00,WeatherDisplay:10.37,2013-05-02 00:14:00,
2013-05-01 20:15:00,64.3,49.7,30.08,SE,131,5.8,5.8,59,0.00,CLR,SCT,0.00,WeatherDisplay:10.37,2013-05-02 00:15:00,
2013-05-01 20:19:00,64.5,49.8,30.08,ESE,105,6.0,6.0,59,0.00,CLR,SCT,0.00,WeatherDisplay:10.37,2013-05-02 00:19:00,
2013-05-01 20:20:00,64.5,49.8,30.08,ESE,105,5.8,5.8,59,0.00,CLR,SCT,0.00,WeatherDisplay:10.37,2013-05-02 00:20:00,
2013-05-01 20:21:00,64.5,49.8,30.08,ESE,105,5.8,5.8,59,0.00,CLR,SCT,0.00,WeatherDisplay:10.37,2013-05-02 00:21:00,
2013-05-01 20:25:00,64.7,50.0,30.08,ESE,112,5.0,5.0,59,0.00,CLR,SCT,0.00,WeatherDisplay:10.37,2013-05-02 00:25:00,
2013-05-01 20:28:00,64.8,50.1,30.08,ESE,113,4.0,4.0,59,0.00,CLR,SCT,0.00,WeatherDisplay:10.37,2013-05-02 00:28:00,
2013-05-01 20:29:00,64.8,49.7,30.09,SE,130,7.0,7.0,58,0.00,CLR,SCT,0.00,WeatherDisplay:10.37,2013-05-02 00:29:00,
2013-05-01 20:30:00,64.8,49.7,30.08,SSE,159,6.9,7.9,58,0.00,CLR,SCT,0.00,WeatherDisplay:10.37,2013-05-02 00:30:00,
2013-05-01 20:32:00,65.0,49.9,30.09,SSE,159,9.2,9.2,58,0.00,CLR,SCT,0.00,WeatherDisplay:10.37,2013-05-02 00:32:00,
2013-05-01 20:34:00,65.0,49.9,30.08,East,96,9.0,9.0,58,0.00,CLR,SCT,0.00,WeatherDisplay:10.37,2013-05-02 00:34:00,
2013-05-01 20:35:00,65.0,49.9,30.08,East,96,9.2,9.2,58,0.00,CLR,SCT,0.00,WeatherDisplay:10.37,2013-05-02 00:35:00,
2013-05-01 20:39:00,65.2,50.0,30.08,SE,129,4.6,4.6,58,0.00,CLR,SCT,0.00,WeatherDisplay:10.37,2013-05-02 00:39:00,
2013-05-01 20:40:00,65.2,50.0,30.08,SE,129,4.6,4.6,58,0.00,CLR,SCT,0.00,WeatherDisplay:10.37,2013-05-02 00:40:00,
2013-05-01 20:43:00,65.2,50.0,30.08,ESE,116,5.8,5.8,58,0.00,CLR,SCT,0.00,WeatherDisplay:10.37,2013-05-02 00:43:00,
2013-05-01 20:44:00,65.2,50.0,30.08,ESE,115,5.8,5.8,58,0.00,CLR,SCT,0.00,WeatherDisplay:10.37,2013-05-02 00:44:00,
2013-05-01 20:46:00,65.2,50.5,30.08,ESE,103,10.4,10.4,59,0.00,CLR,SCT,0.00,WeatherDisplay:10.37,2013-05-02 00:46:00,
2013-05-01 20:50:00,65.2,50.5,30.08,East,94,9.2,9.2,59,0.00,,SCT,0.00,WeatherDisplay:10.37,2013-05-02 00:50:00,
2013-05-01 20:51:00,65.0,50.3,30.08,East,94,11.5,11.5,59,0.00,,SCT,0.00,WeatherDisplay:10.37,2013-05-02 00:51:00,
2013-05-01 20:52:00,65.0,50.3,30.08,East,93,11.5,11.5,59,0.00,,SCT,0.00,WeatherDisplay:10.37,2013-05-02 00:52:00,
2013-05-01 20:55:00,65.0,50.8,30.08,East,89,10.4,10.4,60,0.00,,SCT,0.00,WeatherDisplay:10.37,2013-05-02 00:55:00,
2013-05-01 20:56:00,64.8,50.6,30.08,East,88,9.0,9.0,60,0.00,,SCT,0.00,WeatherDisplay:10.37,2013-05-02 00:56:00,
2013-05-01 20:57:00,64.8,50.6,30.08,East,84,11.0,11.0,60,0.00,,SCT,0.00,WeatherDisplay:10.37,2013-05-02 00:57:00,
2013-05-01 20:59:00,64.7,50.5,30.08,East,95,10.4,10.4,60,0.00,,SCT,0.00,WeatherDisplay:10.37,2013-05-02 00:59:00,
2013-05-01 21:01:00,64.7,50.5,30.08,East,94,11.5,11.5,60,0.00,,SCT,0.00,WeatherDisplay:10.37,2013-05-02 01:01:00,
2013-05-01 21:02:00,64.7,50.9,30.08,East,88,8.1,8.1,61,0.00,,SCT,0.00,WeatherDisplay:10.37,2013-05-02 01:02:00,
2013-05-01 21:04:00,64.5,50.7,30.08,East,96,11.5,11.5,61,0.00,,SCT,0.00,WeatherDisplay:10.37,2013-05-02 01:04:00,
2013-05-01 21:05:00,64.5,50.7,30.08,East,90,11.5,11.5,61,0.00,,SCT,0.00,WeatherDisplay:10.37,2013-05-02 01:05:00,
2013-05-01 21:06:00,64.5,50.7,30.08,East,85,12.7,12.7,61,0.00,,SCT,0.00,WeatherDisplay:10.37,2013-05-02 01:06:00,
2013-05-01 21:09:00,64.5,50.7,30.08,East,82,11.5,11.5,61,0.00,,SCT,0.00,WeatherDisplay:10.37,2013-05-02 01:09:00,
2013-05-01 21:10:00,64.3,50.6,30.08,East,86,11.5,11.5,61,0.00,,SCT,0.00,WeatherDisplay:10.37,2013-05-02 01:10:00,
2013-05-01 21:11:00,64.3,50.6,30.08,East,88,11.5,11.5,61,0.00,,SCT,0.00,WeatherDisplay:10.37,2013-05-02 01:11:00,
2013-05-01 21:16:00,64.2,50.5,30.08,ENE,73,10.4,10.4,61,0.00,,SCT,0.00,WeatherDisplay:10.37,2013-05-02 01:16:00,
2013-05-01 21:17:00,64.2,50.5,30.08,ENE,76,10.4,10.4,61,0.00,,SCT,0.00,WeatherDisplay:10.37,2013-05-02 01:17:00,
2013-05-01 21:18:00,64.2,50.9,30.08,ENE,69,11.5,11.5,62,0.00,,SCT,0.00,WeatherDisplay:10.37,2013-05-02 01:18:00,
2013-05-01 21:19:00,64.0,50.7,30.08,ENE,74,11.5,11.5,62,0.00,,SCT,0.00,WeatherDisplay:10.37,2013-05-02 01:19:00,
2013-05-01 21:21:00,64.0,50.7,30.08,East,86,12.7,12.7,62,0.00,,SCT,0.00,WeatherDisplay:10.37,2013-05-02 01:21:00,
2013-05-01 21:22:00,64.0,50.7,30.08,ENE,73,12.7,12.7,62,0.00,,SCT,0.00,WeatherDisplay:10.37,2013-05-02 01:22:00,
2013-05-01 21:23:00,64.0,50.7,30.08,ENE,76,11.5,11.5,62,0.00,,SCT,0.00,WeatherDisplay:10.37,2013-05-02 01:23:00,
2013-05-01 21:24:00,63.9,50.6,30.08,East,81,11.5,11.5,62,0.00,,SCT,0.00,WeatherDisplay:10.37,2013-05-02 01:24:00,
2013-05-01 21:25:00,63.9,50.6,30.08,East,84,11.5,11.5,62,0.00,,SCT,0.00,WeatherDisplay:10.37,2013-05-02 01:25:00,
2013-05-01 21:29:00,63.7,50.4,30.08,ENE,78,11.5,11.5,62,0.00,,SCT,0.00,WeatherDisplay:10.37,2013-05-02 01:29:00,
2013-05-01 21:30:00,63.7,50.4,30.08,East,85,11.5,11.5,62,0.00,,SCT,0.00,WeatherDisplay:10.37,2013-05-02 01:30:00,
2013-05-01 21:31:00,63.7,50.4,30.08,ENE,76,9.2,9.2,62,0.00,,SCT,0.00,WeatherDisplay:10.37,2013-05-02 01:31:00,
2013-05-01 21:32:00,63.7,50.4,30.09,ENE,76,9.2,9.2,62,0.00,,SCT,0.00,WeatherDisplay:10.37,2013-05-02 01:32:00,
2013-05-01 21:36:00,63.5,50.2,30.09,East,84,12.7,12.7,62,0.00,,SCT,0.00,WeatherDisplay:10.37,2013-05-02 01:36:00,
2013-05-01 21:37:00,63.5,50.2,30.09,ENE,74,11.5,11.5,62,0.00,,SCT,0.00,WeatherDisplay:10.37,2013-05-02 01:37:00,
2013-05-01 21:41:00,63.4,50.1,30.09,East,81,12.7,12.7,62,0.00,,SCT,0.00,WeatherDisplay:10.37,2013-05-02 01:41:00,
2013-05-01 21:42:00,63.4,50.1,30.09,East,79,12.0,12.0,62,0.00,,SCT,0.00,WeatherDisplay:10.37,2013-05-02 01:42:00,
2013-05-01 21:43:00,63.4,50.1,30.09,East,86,13.8,13.8,62,0.00,,SCT,0.00,WeatherDisplay:10.37,2013-05-02 01:43:00,
2013-05-01 21:45:00,63.4,50.6,30.09,East,84,16.1,16.1,63,0.00,,SCT,0.00,WeatherDisplay:10.37,2013-05-02 01:45:00,
2013-05-01 21:47:00,63.4,50.6,30.09,East,92,12.7,12.7,63,0.00,,SCT,0.00,WeatherDisplay:10.37,2013-05-02 01:47:00,
2013-05-01 21:48:00,63.4,50.6,30.09,East,92,12.7,12.7,63,0.00,,SCT,0.00,WeatherDisplay:10.37,2013-05-02 01:48:00,
2013-05-01 21:49:00,63.4,50.6,30.09,East,89,10.4,10.4,63,0.00,,SCT,0.00,WeatherDisplay:10.37,2013-05-02 01:49:00,
2013-05-01 21:50:00,63.4,50.6,30.09,ENE,63,15.0,15.0,63,0.00,,SCT,0.00,WeatherDisplay:10.37,2013-05-02 01:50:00,
2013-05-01 21:52:00,63.2,50.4,30.09,East,84,13.8,13.8,63,0.00,,SCT,0.00,WeatherDisplay:10.37,2013-05-02 01:52:00,
2013-05-01 21:53:00,63.2,50.4,30.09,East,85,13.8,13.8,63,0.00,,SCT,0.00,WeatherDisplay:10.37,2013-05-02 01:53:00,
2013-05-01 21:54:00,63.2,50.4,30.09,East,91,11.5,11.5,63,0.00,,SCT,0.00,WeatherDisplay:10.37,2013-05-02 01:54:00,
2013-05-01 21:55:00,63.2,50.4,30.09,East,92,11.5,11.5,63,0.00,,SCT,0.00,WeatherDisplay:10.37,2013-05-02 01:55:00,
2013-05-01 21:57:00,63.2,50.4,30.09,ENE,78,10.4,10.4,63,0.00,,SCT,0.00,WeatherDisplay:10.37,2013-05-02 01:57:00,
2013-05-01 22:02:00,63.1,50.7,30.10,East,80,9.2,9.2,64,0.00,,SCT,0.00,WeatherDisplay:10.37,2013-05-02 02:02:00,
2013-05-01 22:03:00,63.1,50.7,30.10,East,80,9.2,9.2,64,0.00,,SCT,0.00,WeatherDisplay:10.37,2013-05-02 02:03:00,
2013-05-01 22:04:00,63.1,50.7,30.10,ENE,78,8.1,8.1,64,0.00,,SCT,0.00,WeatherDisplay:10.37,2013-05-02 02:04:00,
2013-05-01 22:05:00,63.1,50.7,30.10,East,96,10.4,10.4,64,0.00,,SCT,0.00,WeatherDisplay:10.37,2013-05-02 02:05:00,
2013-05-01 22:09:00,62.9,50.5,30.10,ENE,76,12.7,12.7,64,0.00,,SCT,0.00,WeatherDisplay:10.37,2013-05-02 02:09:00,
2013-05-01 22:11:00,62.7,50.3,30.09,ENE,72,10.4,10.4,64,0.00,,SCT,0.00,WeatherDisplay:10.37,2013-05-02 02:11:00,
2013-05-01 22:12:00,62.7,50.3,30.10,East,84,10.4,10.4,64,0.00,,SCT,0.00,WeatherDisplay:10.37,2013-05-02 02:12:00,
2013-05-01 22:14:00,62.7,50.3,30.10,East,82,12.7,12.7,64,0.00,,SCT,0.00,WeatherDisplay:10.37,2013-05-02 02:14:00,
2013-05-01 22:16:00,62.7,50.3,30.10,East,81,10.0,10.0,64,0.00,,SCT,0.00,WeatherDisplay:10.37,2013-05-02 02:16:00,
2013-05-01 22:18:00,62.7,50.3,30.10,East,90,10.4,10.4,64,0.00,,SCT,0.00,WeatherDisplay:10.37,2013-05-02 02:18:00,
2013-05-01 22:21:00,62.6,51.1,30.10,East,86,9.2,9.2,66,0.00,,SCT,0.00,WeatherDisplay:10.37,2013-05-02 02:21:00,
2013-05-01 22:22:00,62.6,50.7,30.10,East,85,7.0,7.0,65,0.00,,SCT,0.00,WeatherDisplay:10.37,2013-05-02 02:22:00,
2013-05-01 22:25:00,62.4,50.5,30.10,East,92,11.5,11.5,65,0.00,,SCT,0.00,WeatherDisplay:10.37,2013-05-02 02:25:00,
2013-05-01 22:27:00,62.4,50.5,30.10,East,90,10.4,10.4,65,0.00,,SCT,0.00,WeatherDisplay:10.37,2013-05-02 02:27:00,
2013-05-01 22:28:00,62.4,50.5,30.10,East,93,9.2,9.2,65,0.00,,SCT,0.00,WeatherDisplay:10.37,2013-05-02 02:28:00,
2013-05-01 22:29:00,62.4,50.5,30.10,East,90,9.2,9.2,65,0.00,,SCT,0.00,WeatherDisplay:10.37,2013-05-02 02:29:00,
2013-05-01 22:30:00,62.4,50.5,30.10,East,90,9.2,9.2,65,0.00,,SCT,0.00,WeatherDisplay:10.37,2013-05-02 02:30:00,
2013-05-01 22:34:00,62.3,50.4,30.10,East,88,6.0,6.0,65,0.00,,SCT,0.00,WeatherDisplay:10.37,2013-05-02 02:34:00,
2013-05-01 22:36:00,62.3,50.4,30.10,East,98,10.4,10.4,65,0.00,,SCT,0.00,WeatherDisplay:10.37,2013-05-02 02:36:00,
2013-05-01 22:37:00,62.3,50.4,30.10,East,80,10.4,10.4,65,0.00,,SCT,0.00,WeatherDisplay:10.37,2013-05-02 02:37:00,
2013-05-01 22:40:00,62.3,50.4,30.10,East,79,5.8,6.1,65,0.00,,SCT,0.00,WeatherDisplay:10.37,2013-05-02 02:40:00,
2013-05-01 22:41:00,62.1,50.2,30.10,East,81,9.2,9.2,65,0.00,,SCT,0.00,WeatherDisplay:10.37,2013-05-02 02:41:00,
2013-05-01 22:42:00,62.1,50.2,30.10,East,82,7.0,7.0,65,0.00,,SCT,0.00,WeatherDisplay:10.37,2013-05-02 02:42:00,
2013-05-01 22:45:00,62.1,50.2,30.10,East,86,10.0,10.0,65,0.00,,SCT,0.00,WeatherDisplay:10.37,2013-05-02 02:45:00,
2013-05-01 22:47:00,62.1,50.2,30.10,East,91,8.1,8.1,65,0.00,,SCT,0.00,WeatherDisplay:10.37,2013-05-02 02:47:00,
2013-05-01 22:49:00,62.0,50.1,30.10,East,90,6.9,6.9,65,0.00,,SCT,0.00,WeatherDisplay:10.37,2013-05-02 02:49:00,
2013-05-01 22:50:00,62.0,50.1,30.10,East,90,6.9,6.9,65,0.00,,SCT,0.00,WeatherDisplay:10.37,2013-05-02 02:50:00,
2013-05-01 22:51:00,62.0,50.1,30.10,East,88,6.9,6.9,65,0.00,,SCT,0.00,WeatherDisplay:10.37,2013-05-02 02:51:00,
2013-05-01 22:53:00,62.0,50.5,30.10,East,88,7.0,7.0,66,0.00,,SCT,0.00,WeatherDisplay:10.37,2013-05-02 02:53:00,
2013-05-01 22:56:00,62.0,50.5,30.10,East,88,5.8,5.8,66,0.00,,SCT,0.00,WeatherDisplay:10.37,2013-05-02 02:56:00,
2013-05-01 22:57:00,61.8,50.3,30.10,East,88,5.8,5.8,66,0.00,,SCT,0.00,WeatherDisplay:10.37,2013-05-02 02:57:00,
2013-05-01 22:58:00,61.8,50.3,30.10,East,88,3.5,3.5,66,0.00,,SCT,0.00,WeatherDisplay:10.37,2013-05-02 02:58:00,
2013-05-01 22:59:00,61.8,50.3,30.10,East,88,6.0,6.0,66,0.00,,SCT,0.00,WeatherDisplay:10.37,2013-05-02 02:59:00,
2013-05-01 23:03:00,61.6,50.1,30.10,East,88,5.8,5.8,66,0.00,,SCT,0.00,WeatherDisplay:10.37,2013-05-02 03:03:00,
2013-05-01 23:04:00,61.6,50.1,30.10,East,88,3.5,3.5,66,0.00,,SCT,0.00,WeatherDisplay:10.37,2013-05-02 03:04:00,
2013-05-01 23:05:00,61.6,50.1,30.10,East,89,5.0,5.0,66,0.00,,SCT,0.00,WeatherDisplay:10.37,2013-05-02 03:05:00,
2013-05-01 23:10:00,61.3,49.8,30.10,ENE,76,7.0,7.0,66,0.00,,SCT,0.00,WeatherDisplay:10.37,2013-05-02 03:10:00,
2013-05-01 23:11:00,61.3,49.8,30.10,ENE,76,8.1,8.1,66,0.00,,SCT,0.00,WeatherDisplay:10.37,2013-05-02 03:11:00,
2013-05-01 23:12:00,61.3,49.8,30.10,ENE,76,8.1,8.1,66,0.00,,SCT,0.00,WeatherDisplay:10.37,2013-05-02 03:12:00,
2013-05-01 23:13:00,61.3,50.2,30.10,ENE,76,9.2,9.2,67,0.00,,SCT,0.00,WeatherDisplay:10.37,2013-05-02 03:13:00,
2013-05-01 23:15:00,61.2,50.2,30.10,ENE,75,9.2,9.2,67,0.00,,SCT,0.00,WeatherDisplay:10.37,2013-05-02 03:15:00,
2013-05-01 23:17:00,61.2,50.2,30.10,ENE,75,6.9,6.9,67,0.00,,SCT,0.00,WeatherDisplay:10.37,2013-05-02 03:17:00,
2013-05-01 23:22:00,61.3,50.2,30.10,East,86,8.1,8.1,67,0.00,,SCT,0.00,WeatherDisplay:10.37,2013-05-02 03:22:00,
2013-05-01 23:23:00,61.3,50.2,30.10,East,85,7.0,7.0,67,0.00,,SCT,0.00,WeatherDisplay:10.37,2013-05-02 03:23:00,
2013-05-01 23:24:00,61.3,50.2,30.10,East,84,6.9,6.9,67,0.00,,SCT,0.00,WeatherDisplay:10.37,2013-05-02 03:24:00,
2013-05-01 23:26:00,61.3,50.2,30.10,East,84,6.0,6.0,67,0.00,,SCT,0.00,WeatherDisplay:10.37,2013-05-02 03:26:00,
2013-05-01 23:27:00,61.3,50.2,30.10,East,84,5.8,5.8,67,0.00,,SCT,0.00,WeatherDisplay:10.37,2013-05-02 03:27:00,
2013-05-01 23:29:00,61.3,50.2,30.10,East,88,9.2,9.2,67,0.00,,SCT,0.00,WeatherDisplay:10.37,2013-05-02 03:29:00,
2013-05-01 23:30:00,61.3,50.2,30.10,ENE,74,6.9,6.9,67,0.00,,SCT,0.00,WeatherDisplay:10.37,2013-05-02 03:30:00,
2013-05-01 23:32:00,61.3,50.2,30.10,ESE,105,6.9,6.9,67,0.00,,SCT,0.00,WeatherDisplay:10.37,2013-05-02 03:32:00,
2013-05-01 23:34:00,61.3,50.2,30.10,East,89,6.9,6.9,67,0.00,,SCT,0.00,WeatherDisplay:10.37,2013-05-02 03:34:00,
2013-05-01 23:38:00,61.3,50.2,30.10,East,83,6.9,6.9,67,0.00,,SCT,0.00,WeatherDisplay:10.37,2013-05-02 03:38:00,
2013-05-01 23:39:00,61.3,50.2,30.10,East,80,9.2,9.2,67,0.00,,SCT,0.00,WeatherDisplay:10.37,2013-05-02 03:39:00,
2013-05-01 23:40:00,61.3,50.2,30.10,ENE,76,11.0,11.0,67,0.00,,SCT,0.00,WeatherDisplay:10.37,2013-05-02 03:40:00,
2013-05-01 23:44:00,61.3,50.2,30.10,East,79,6.9,6.9,67,0.00,,SCT,0.00,WeatherDisplay:10.37,2013-05-02 03:44:00,
2013-05-01 23:45:00,61.3,50.2,30.10,East,79,6.9,6.9,67,0.00,,SCT,0.00,WeatherDisplay:10.37,2013-05-02 03:45:00,
2013-05-01 23:46:00,61.5,50.4,30.10,East,79,5.8,5.8,67,0.00,,SCT,0.00,WeatherDisplay:10.37,2013-05-02 03:46:00,
2013-05-01 23:47:00,61.5,50.4,30.09,East,79,5.0,5.0,67,0.00,,SCT,0.00,WeatherDisplay:10.37,2013-05-02 03:47:00,
2013-05-01 23:48:00,61.5,50.4,30.09,East,79,7.0,7.0,67,0.00,,SCT,0.00,WeatherDisplay:10.37,2013-05-02 03:48:00,
2013-05-01 23:51:00,61.3,50.2,30.10,East,85,10.4,10.4,67,0.00,,SCT,0.00,WeatherDisplay:10.37,2013-05-02 03:51:00,
2013-05-01 23:52:00,61.3,50.2,30.10,East,101,11.5,11.5,67,0.00,,SCT,0.00,WeatherDisplay:10.37,2013-05-02 03:52:00,
2013-05-01 23:54:00,61.5,50.4,30.09,East,86,10.4,10.4,67,0.00,,SCT,0.00,WeatherDisplay:10.37,2013-05-02 03:54:00,
2013-05-01 23:56:00,61.5,50.4,30.09,East,80,8.1,8.1,67,0.00,,SCT,0.00,WeatherDisplay:10.37,2013-05-02 03:56:00,
2013-05-01 23:59:00,61.5,50.0,30.09,East,82,7.0,7.0,66,0.00,,SCT,0.00,WeatherDisplay:10.37,2013-05-02 03:59:00,